<?xml version="1.0" encoding="UTF-8" standalone="no" ?>
<gpx xmlns="http://www.topografix.com/GPX/1/1" xmlns:xsi="http://www.w3.org/2001/XMLSchema-instance" xsi:schemaLocation="http://www.topografix.com/GPX/1/1 http://www.topografix.com/GPX/1/1/gpx.xsd" version="1.1" creator="VisuGPX - https://www.visugpx.com">
  <metadata>
    <name>2021-03-23 14:11:38 Jour</name>
    <desc><![CDATA[Reux, Clarbec,Saint Hymer Pierrefitte en Auge]]></desc>
  </metadata>
  <trk>
    <name><![CDATA[2021-03-23 14:11:38 Jour]]></name>
    <trkseg>
      <trkpt lat="49.28044" lon="0.17842">
        <ele>-28.7</ele>
        <time>2021-03-23T13:11:38Z</time>
      </trkpt>
      <trkpt lat="49.2802" lon="0.17875">
        <ele>-28.7</ele>
        <time>2021-03-23T13:12:12Z</time>
      </trkpt>
      <trkpt lat="49.28021" lon="0.17879">
        <ele>-28.7</ele>
        <time>2021-03-23T13:12:13Z</time>
      </trkpt>
      <trkpt lat="49.28026" lon="0.17929">
        <ele>-29.66</ele>
        <time>2021-03-23T13:12:29Z</time>
      </trkpt>
      <trkpt lat="49.28006" lon="0.17957">
        <ele>-29.66</ele>
        <time>2021-03-23T13:12:46Z</time>
      </trkpt>
      <trkpt lat="49.27991" lon="0.17954">
        <ele>-28.22</ele>
        <time>2021-03-23T13:12:59Z</time>
      </trkpt>
      <trkpt lat="49.27988" lon="0.17953">
        <ele>-24.38</ele>
        <time>2021-03-23T13:13:01Z</time>
      </trkpt>
      <trkpt lat="49.27986" lon="0.17951">
        <ele>-20.53</ele>
        <time>2021-03-23T13:13:03Z</time>
      </trkpt>
      <trkpt lat="49.27983" lon="0.17951">
        <ele>-17.17</ele>
        <time>2021-03-23T13:13:05Z</time>
      </trkpt>
      <trkpt lat="49.27981" lon="0.1795">
        <ele>-13.8</ele>
        <time>2021-03-23T13:13:07Z</time>
      </trkpt>
      <trkpt lat="49.27979" lon="0.17949">
        <ele>-10.92</ele>
        <time>2021-03-23T13:13:09Z</time>
      </trkpt>
      <trkpt lat="49.27974" lon="0.17943">
        <ele>-6.59</ele>
        <time>2021-03-23T13:13:12Z</time>
      </trkpt>
      <trkpt lat="49.27969" lon="0.17939">
        <ele>-2.75</ele>
        <time>2021-03-23T13:13:16Z</time>
      </trkpt>
      <trkpt lat="49.27962" lon="0.17934">
        <ele>0.14</ele>
        <time>2021-03-23T13:13:21Z</time>
      </trkpt>
      <trkpt lat="49.27951" lon="0.1793">
        <ele>3.02</ele>
        <time>2021-03-23T13:13:31Z</time>
      </trkpt>
      <trkpt lat="49.27935" lon="0.17938">
        <ele>6.39</ele>
        <time>2021-03-23T13:13:42Z</time>
      </trkpt>
      <trkpt lat="49.27919" lon="0.17934">
        <ele>9.27</ele>
        <time>2021-03-23T13:13:55Z</time>
      </trkpt>
      <trkpt lat="49.27893" lon="0.17926">
        <ele>11.19</ele>
        <time>2021-03-23T13:14:18Z</time>
      </trkpt>
      <trkpt lat="49.27873" lon="0.1792">
        <ele>12.63</ele>
        <time>2021-03-23T13:14:37Z</time>
      </trkpt>
      <trkpt lat="49.27865" lon="0.17916">
        <ele>13.12</ele>
        <time>2021-03-23T13:14:45Z</time>
      </trkpt>
      <trkpt lat="49.27842" lon="0.17918">
        <ele>13.12</ele>
        <time>2021-03-23T13:15:05Z</time>
      </trkpt>
      <trkpt lat="49.2783" lon="0.17921">
        <ele>13.12</ele>
        <time>2021-03-23T13:15:18Z</time>
      </trkpt>
      <trkpt lat="49.27824" lon="0.17908">
        <ele>13.12</ele>
        <time>2021-03-23T13:15:29Z</time>
      </trkpt>
      <trkpt lat="49.27823" lon="0.17904">
        <ele>13.6</ele>
        <time>2021-03-23T13:15:32Z</time>
      </trkpt>
      <trkpt lat="49.27824" lon="0.17883">
        <ele>14.56</ele>
        <time>2021-03-23T13:15:46Z</time>
      </trkpt>
      <trkpt lat="49.27824" lon="0.1785">
        <ele>16</ele>
        <time>2021-03-23T13:16:07Z</time>
      </trkpt>
      <trkpt lat="49.2782" lon="0.17817">
        <ele>16.48</ele>
        <time>2021-03-23T13:16:26Z</time>
      </trkpt>
      <trkpt lat="49.27815" lon="0.17779">
        <ele>17.92</ele>
        <time>2021-03-23T13:16:45Z</time>
      </trkpt>
      <trkpt lat="49.27808" lon="0.17749">
        <ele>19.36</ele>
        <time>2021-03-23T13:17:03Z</time>
      </trkpt>
      <trkpt lat="49.27808" lon="0.17746">
        <ele>19.84</ele>
        <time>2021-03-23T13:17:05Z</time>
      </trkpt>
      <trkpt lat="49.27805" lon="0.17716">
        <ele>21.29</ele>
        <time>2021-03-23T13:17:24Z</time>
      </trkpt>
      <trkpt lat="49.27804" lon="0.17687">
        <ele>21.77</ele>
        <time>2021-03-23T13:17:41Z</time>
      </trkpt>
      <trkpt lat="49.27798" lon="0.1766">
        <ele>22.73</ele>
        <time>2021-03-23T13:17:58Z</time>
      </trkpt>
      <trkpt lat="49.27796" lon="0.17632">
        <ele>24.65</ele>
        <time>2021-03-23T13:18:16Z</time>
      </trkpt>
      <trkpt lat="49.27797" lon="0.17615">
        <ele>25.13</ele>
        <time>2021-03-23T13:18:33Z</time>
      </trkpt>
      <trkpt lat="49.278" lon="0.17587">
        <ele>26.09</ele>
        <time>2021-03-23T13:18:50Z</time>
      </trkpt>
      <trkpt lat="49.27803" lon="0.17572">
        <ele>27.05</ele>
        <time>2021-03-23T13:18:59Z</time>
      </trkpt>
      <trkpt lat="49.27814" lon="0.17547">
        <ele>27.53</ele>
        <time>2021-03-23T13:19:17Z</time>
      </trkpt>
      <trkpt lat="49.27827" lon="0.17519">
        <ele>29.46</ele>
        <time>2021-03-23T13:19:38Z</time>
      </trkpt>
      <trkpt lat="49.27829" lon="0.17515">
        <ele>29.46</ele>
        <time>2021-03-23T13:20:13Z</time>
      </trkpt>
      <trkpt lat="49.27829" lon="0.17514">
        <ele>29.46</ele>
        <time>2021-03-23T13:20:14Z</time>
      </trkpt>
      <trkpt lat="49.27826" lon="0.17495">
        <ele>29.94</ele>
        <time>2021-03-23T13:20:27Z</time>
      </trkpt>
      <trkpt lat="49.27812" lon="0.17473">
        <ele>30.9</ele>
        <time>2021-03-23T13:20:46Z</time>
      </trkpt>
      <trkpt lat="49.27792" lon="0.17448">
        <ele>31.86</ele>
        <time>2021-03-23T13:21:08Z</time>
      </trkpt>
      <trkpt lat="49.27783" lon="0.17437">
        <ele>32.82</ele>
        <time>2021-03-23T13:21:26Z</time>
      </trkpt>
      <trkpt lat="49.2777" lon="0.17423">
        <ele>32.82</ele>
        <time>2021-03-23T13:21:42Z</time>
      </trkpt>
      <trkpt lat="49.27752" lon="0.174">
        <ele>33.78</ele>
        <time>2021-03-23T13:22:02Z</time>
      </trkpt>
      <trkpt lat="49.27732" lon="0.17375">
        <ele>35.23</ele>
        <time>2021-03-23T13:22:25Z</time>
      </trkpt>
      <trkpt lat="49.27711" lon="0.17349">
        <ele>36.67</ele>
        <time>2021-03-23T13:22:48Z</time>
      </trkpt>
      <trkpt lat="49.27691" lon="0.17326">
        <ele>37.63</ele>
        <time>2021-03-23T13:23:09Z</time>
      </trkpt>
      <trkpt lat="49.27669" lon="0.17302">
        <ele>38.59</ele>
        <time>2021-03-23T13:23:31Z</time>
      </trkpt>
      <trkpt lat="49.27654" lon="0.17283">
        <ele>39.55</ele>
        <time>2021-03-23T13:23:48Z</time>
      </trkpt>
      <trkpt lat="49.27635" lon="0.17259">
        <ele>40.51</ele>
        <time>2021-03-23T13:24:08Z</time>
      </trkpt>
      <trkpt lat="49.27613" lon="0.17233">
        <ele>41.47</ele>
        <time>2021-03-23T13:24:32Z</time>
      </trkpt>
      <trkpt lat="49.27594" lon="0.17211">
        <ele>42.44</ele>
        <time>2021-03-23T13:24:51Z</time>
      </trkpt>
      <trkpt lat="49.27576" lon="0.17188">
        <ele>42.92</ele>
        <time>2021-03-23T13:25:12Z</time>
      </trkpt>
      <trkpt lat="49.27558" lon="0.17171">
        <ele>42.92</ele>
        <time>2021-03-23T13:25:34Z</time>
      </trkpt>
      <trkpt lat="49.27555" lon="0.17163">
        <ele>42.92</ele>
        <time>2021-03-23T13:26:01Z</time>
      </trkpt>
      <trkpt lat="49.27556" lon="0.1716">
        <ele>42.92</ele>
        <time>2021-03-23T13:26:24Z</time>
      </trkpt>
      <trkpt lat="49.27539" lon="0.1714">
        <ele>43.4</ele>
        <time>2021-03-23T13:26:44Z</time>
      </trkpt>
      <trkpt lat="49.2752" lon="0.17121">
        <ele>43.4</ele>
        <time>2021-03-23T13:27:03Z</time>
      </trkpt>
      <trkpt lat="49.27504" lon="0.171">
        <ele>43.88</ele>
        <time>2021-03-23T13:27:20Z</time>
      </trkpt>
      <trkpt lat="49.27484" lon="0.17076">
        <ele>43.88</ele>
        <time>2021-03-23T13:27:41Z</time>
      </trkpt>
      <trkpt lat="49.27465" lon="0.17053">
        <ele>44.36</ele>
        <time>2021-03-23T13:28:02Z</time>
      </trkpt>
      <trkpt lat="49.27451" lon="0.17039">
        <ele>44.84</ele>
        <time>2021-03-23T13:28:20Z</time>
      </trkpt>
      <trkpt lat="49.27449" lon="0.17035">
        <ele>44.84</ele>
        <time>2021-03-23T13:28:24Z</time>
      </trkpt>
      <trkpt lat="49.27438" lon="0.1702">
        <ele>45.32</ele>
        <time>2021-03-23T13:28:37Z</time>
      </trkpt>
      <trkpt lat="49.27421" lon="0.16997">
        <ele>45.32</ele>
        <time>2021-03-23T13:28:57Z</time>
      </trkpt>
      <trkpt lat="49.27403" lon="0.16973">
        <ele>45.32</ele>
        <time>2021-03-23T13:29:18Z</time>
      </trkpt>
      <trkpt lat="49.27381" lon="0.16948">
        <ele>46.28</ele>
        <time>2021-03-23T13:29:41Z</time>
      </trkpt>
      <trkpt lat="49.27359" lon="0.16923">
        <ele>47.72</ele>
        <time>2021-03-23T13:30:05Z</time>
      </trkpt>
      <trkpt lat="49.27337" lon="0.16898">
        <ele>48.68</ele>
        <time>2021-03-23T13:30:29Z</time>
      </trkpt>
      <trkpt lat="49.27318" lon="0.16875">
        <ele>50.13</ele>
        <time>2021-03-23T13:30:50Z</time>
      </trkpt>
      <trkpt lat="49.27295" lon="0.16848">
        <ele>51.57</ele>
        <time>2021-03-23T13:31:14Z</time>
      </trkpt>
      <trkpt lat="49.27275" lon="0.16821">
        <ele>53.01</ele>
        <time>2021-03-23T13:31:36Z</time>
      </trkpt>
      <trkpt lat="49.27264" lon="0.16808">
        <ele>53.49</ele>
        <time>2021-03-23T13:31:48Z</time>
      </trkpt>
      <trkpt lat="49.27265" lon="0.16807">
        <ele>53.49</ele>
        <time>2021-03-23T13:31:56Z</time>
      </trkpt>
      <trkpt lat="49.27258" lon="0.168">
        <ele>53.97</ele>
        <time>2021-03-23T13:32:08Z</time>
      </trkpt>
      <trkpt lat="49.27244" lon="0.16783">
        <ele>54.45</ele>
        <time>2021-03-23T13:32:23Z</time>
      </trkpt>
      <trkpt lat="49.27243" lon="0.1677">
        <ele>54.93</ele>
        <time>2021-03-23T13:32:30Z</time>
      </trkpt>
      <trkpt lat="49.27227" lon="0.16741">
        <ele>56.86</ele>
        <time>2021-03-23T13:32:52Z</time>
      </trkpt>
      <trkpt lat="49.27224" lon="0.16736">
        <ele>56.86</ele>
        <time>2021-03-23T13:32:58Z</time>
      </trkpt>
      <trkpt lat="49.27207" lon="0.16714">
        <ele>59.26</ele>
        <time>2021-03-23T13:33:19Z</time>
      </trkpt>
      <trkpt lat="49.27198" lon="0.16707">
        <ele>60.22</ele>
        <time>2021-03-23T13:33:32Z</time>
      </trkpt>
      <trkpt lat="49.27197" lon="0.16704">
        <ele>60.7</ele>
        <time>2021-03-23T13:33:45Z</time>
      </trkpt>
      <trkpt lat="49.27183" lon="0.1669">
        <ele>62.14</ele>
        <time>2021-03-23T13:34:03Z</time>
      </trkpt>
      <trkpt lat="49.27168" lon="0.16672">
        <ele>64.07</ele>
        <time>2021-03-23T13:34:21Z</time>
      </trkpt>
      <trkpt lat="49.27164" lon="0.16663">
        <ele>64.55</ele>
        <time>2021-03-23T13:34:28Z</time>
      </trkpt>
      <trkpt lat="49.27165" lon="0.16632">
        <ele>66.47</ele>
        <time>2021-03-23T13:34:45Z</time>
      </trkpt>
      <trkpt lat="49.27176" lon="0.16613">
        <ele>68.87</ele>
        <time>2021-03-23T13:35:03Z</time>
      </trkpt>
      <trkpt lat="49.27184" lon="0.16595">
        <ele>70.79</ele>
        <time>2021-03-23T13:35:19Z</time>
      </trkpt>
      <trkpt lat="49.27188" lon="0.16568">
        <ele>72.72</ele>
        <time>2021-03-23T13:35:38Z</time>
      </trkpt>
      <trkpt lat="49.27194" lon="0.16543">
        <ele>74.16</ele>
        <time>2021-03-23T13:35:56Z</time>
      </trkpt>
      <trkpt lat="49.27198" lon="0.16521">
        <ele>76.08</ele>
        <time>2021-03-23T13:36:14Z</time>
      </trkpt>
      <trkpt lat="49.27208" lon="0.16499">
        <ele>77.52</ele>
        <time>2021-03-23T13:36:31Z</time>
      </trkpt>
      <trkpt lat="49.27212" lon="0.16477">
        <ele>78.97</ele>
        <time>2021-03-23T13:36:46Z</time>
      </trkpt>
      <trkpt lat="49.27221" lon="0.16467">
        <ele>80.41</ele>
        <time>2021-03-23T13:37:02Z</time>
      </trkpt>
      <trkpt lat="49.27216" lon="0.16452">
        <ele>81.85</ele>
        <time>2021-03-23T13:37:19Z</time>
      </trkpt>
      <trkpt lat="49.27208" lon="0.1644">
        <ele>83.29</ele>
        <time>2021-03-23T13:37:35Z</time>
      </trkpt>
      <trkpt lat="49.27198" lon="0.16427">
        <ele>84.25</ele>
        <time>2021-03-23T13:37:48Z</time>
      </trkpt>
      <trkpt lat="49.27178" lon="0.164">
        <ele>86.66</ele>
        <time>2021-03-23T13:38:05Z</time>
      </trkpt>
      <trkpt lat="49.27162" lon="0.16383">
        <ele>89.06</ele>
        <time>2021-03-23T13:38:22Z</time>
      </trkpt>
      <trkpt lat="49.27155" lon="0.16375">
        <ele>89.54</ele>
        <time>2021-03-23T13:38:29Z</time>
      </trkpt>
      <trkpt lat="49.27135" lon="0.16361">
        <ele>90.5</ele>
        <time>2021-03-23T13:38:47Z</time>
      </trkpt>
      <trkpt lat="49.27118" lon="0.16354">
        <ele>91.94</ele>
        <time>2021-03-23T13:39:03Z</time>
      </trkpt>
      <trkpt lat="49.27102" lon="0.16344">
        <ele>92.9</ele>
        <time>2021-03-23T13:39:18Z</time>
      </trkpt>
      <trkpt lat="49.27098" lon="0.1634">
        <ele>93.39</ele>
        <time>2021-03-23T13:39:22Z</time>
      </trkpt>
      <trkpt lat="49.27084" lon="0.16329">
        <ele>94.83</ele>
        <time>2021-03-23T13:39:36Z</time>
      </trkpt>
      <trkpt lat="49.27068" lon="0.1632">
        <ele>96.27</ele>
        <time>2021-03-23T13:39:53Z</time>
      </trkpt>
      <trkpt lat="49.27054" lon="0.16313">
        <ele>96.75</ele>
        <time>2021-03-23T13:40:09Z</time>
      </trkpt>
      <trkpt lat="49.27042" lon="0.16315">
        <ele>97.23</ele>
        <time>2021-03-23T13:40:24Z</time>
      </trkpt>
      <trkpt lat="49.27019" lon="0.16304">
        <ele>99.15</ele>
        <time>2021-03-23T13:40:44Z</time>
      </trkpt>
      <trkpt lat="49.27007" lon="0.16305">
        <ele>99.15</ele>
        <time>2021-03-23T13:40:50Z</time>
      </trkpt>
      <trkpt lat="49.27003" lon="0.16304">
        <ele>99.15</ele>
        <time>2021-03-23T13:40:52Z</time>
      </trkpt>
      <trkpt lat="49.26996" lon="0.163">
        <ele>99.15</ele>
        <time>2021-03-23T13:40:58Z</time>
      </trkpt>
      <trkpt lat="49.26978" lon="0.16278">
        <ele>99.63</ele>
        <time>2021-03-23T13:41:17Z</time>
      </trkpt>
      <trkpt lat="49.26962" lon="0.16255">
        <ele>99.63</ele>
        <time>2021-03-23T13:41:37Z</time>
      </trkpt>
      <trkpt lat="49.26947" lon="0.16231">
        <ele>101.08</ele>
        <time>2021-03-23T13:41:56Z</time>
      </trkpt>
      <trkpt lat="49.26934" lon="0.16208">
        <ele>102.52</ele>
        <time>2021-03-23T13:42:15Z</time>
      </trkpt>
      <trkpt lat="49.2693" lon="0.16201">
        <ele>103.48</ele>
        <time>2021-03-23T13:42:22Z</time>
      </trkpt>
      <trkpt lat="49.26918" lon="0.16179">
        <ele>103.48</ele>
        <time>2021-03-23T13:42:39Z</time>
      </trkpt>
      <trkpt lat="49.269" lon="0.16153">
        <ele>104.44</ele>
        <time>2021-03-23T13:42:59Z</time>
      </trkpt>
      <trkpt lat="49.26898" lon="0.16148">
        <ele>104.92</ele>
        <time>2021-03-23T13:43:14Z</time>
      </trkpt>
      <trkpt lat="49.26893" lon="0.16143">
        <ele>104.92</ele>
        <time>2021-03-23T13:43:30Z</time>
      </trkpt>
      <trkpt lat="49.26882" lon="0.16131">
        <ele>105.4</ele>
        <time>2021-03-23T13:43:47Z</time>
      </trkpt>
      <trkpt lat="49.26866" lon="0.16107">
        <ele>105.4</ele>
        <time>2021-03-23T13:44:05Z</time>
      </trkpt>
      <trkpt lat="49.26857" lon="0.16088">
        <ele>105.88</ele>
        <time>2021-03-23T13:44:20Z</time>
      </trkpt>
      <trkpt lat="49.26853" lon="0.16081">
        <ele>106.36</ele>
        <time>2021-03-23T13:44:34Z</time>
      </trkpt>
      <trkpt lat="49.26841" lon="0.16063">
        <ele>106.36</ele>
        <time>2021-03-23T13:44:52Z</time>
      </trkpt>
      <trkpt lat="49.26836" lon="0.16061">
        <ele>106.84</ele>
        <time>2021-03-23T13:45:42Z</time>
      </trkpt>
      <trkpt lat="49.26825" lon="0.16044">
        <ele>106.84</ele>
        <time>2021-03-23T13:45:59Z</time>
      </trkpt>
      <trkpt lat="49.26806" lon="0.16019">
        <ele>107.32</ele>
        <time>2021-03-23T13:46:19Z</time>
      </trkpt>
      <trkpt lat="49.26786" lon="0.15999">
        <ele>107.32</ele>
        <time>2021-03-23T13:46:39Z</time>
      </trkpt>
      <trkpt lat="49.26772" lon="0.15988">
        <ele>107.32</ele>
        <time>2021-03-23T13:46:54Z</time>
      </trkpt>
      <trkpt lat="49.26748" lon="0.15971">
        <ele>107.81</ele>
        <time>2021-03-23T13:47:16Z</time>
      </trkpt>
      <trkpt lat="49.26725" lon="0.15957">
        <ele>107.81</ele>
        <time>2021-03-23T13:47:37Z</time>
      </trkpt>
      <trkpt lat="49.2671" lon="0.15948">
        <ele>107.81</ele>
        <time>2021-03-23T13:47:54Z</time>
      </trkpt>
      <trkpt lat="49.26702" lon="0.15948">
        <ele>107.81</ele>
        <time>2021-03-23T13:48:09Z</time>
      </trkpt>
      <trkpt lat="49.26677" lon="0.15932">
        <ele>107.81</ele>
        <time>2021-03-23T13:48:27Z</time>
      </trkpt>
      <trkpt lat="49.26656" lon="0.15914">
        <ele>107.81</ele>
        <time>2021-03-23T13:48:44Z</time>
      </trkpt>
      <trkpt lat="49.26636" lon="0.15898">
        <ele>107.81</ele>
        <time>2021-03-23T13:49:03Z</time>
      </trkpt>
      <trkpt lat="49.26616" lon="0.15882">
        <ele>107.81</ele>
        <time>2021-03-23T13:49:21Z</time>
      </trkpt>
      <trkpt lat="49.26594" lon="0.15864">
        <ele>106.84</ele>
        <time>2021-03-23T13:49:40Z</time>
      </trkpt>
      <trkpt lat="49.2658" lon="0.15855">
        <ele>106.84</ele>
        <time>2021-03-23T13:49:54Z</time>
      </trkpt>
      <trkpt lat="49.26555" lon="0.15832">
        <ele>106.84</ele>
        <time>2021-03-23T13:50:16Z</time>
      </trkpt>
      <trkpt lat="49.26529" lon="0.15807">
        <ele>107.32</ele>
        <time>2021-03-23T13:50:41Z</time>
      </trkpt>
      <trkpt lat="49.26519" lon="0.15797">
        <ele>105.88</ele>
        <time>2021-03-23T13:50:50Z</time>
      </trkpt>
      <trkpt lat="49.26495" lon="0.15767">
        <ele>104.44</ele>
        <time>2021-03-23T13:51:15Z</time>
      </trkpt>
      <trkpt lat="49.26471" lon="0.15749">
        <ele>103.48</ele>
        <time>2021-03-23T13:51:36Z</time>
      </trkpt>
      <trkpt lat="49.26447" lon="0.15731">
        <ele>101.56</ele>
        <time>2021-03-23T13:51:58Z</time>
      </trkpt>
      <trkpt lat="49.26434" lon="0.15722">
        <ele>100.6</ele>
        <time>2021-03-23T13:52:12Z</time>
      </trkpt>
      <trkpt lat="49.26418" lon="0.15708">
        <ele>97.71</ele>
        <time>2021-03-23T13:52:30Z</time>
      </trkpt>
      <trkpt lat="49.26403" lon="0.15693">
        <ele>94.83</ele>
        <time>2021-03-23T13:52:49Z</time>
      </trkpt>
      <trkpt lat="49.26396" lon="0.15682">
        <ele>91.46</ele>
        <time>2021-03-23T13:53:05Z</time>
      </trkpt>
      <trkpt lat="49.26391" lon="0.15671">
        <ele>89.06</ele>
        <time>2021-03-23T13:53:23Z</time>
      </trkpt>
      <trkpt lat="49.26383" lon="0.15657">
        <ele>85.69</ele>
        <time>2021-03-23T13:53:38Z</time>
      </trkpt>
      <trkpt lat="49.26376" lon="0.15643">
        <ele>83.29</ele>
        <time>2021-03-23T13:53:56Z</time>
      </trkpt>
      <trkpt lat="49.26374" lon="0.15642">
        <ele>82.81</ele>
        <time>2021-03-23T13:53:58Z</time>
      </trkpt>
      <trkpt lat="49.2636" lon="0.1566">
        <ele>79.93</ele>
        <time>2021-03-23T13:54:17Z</time>
      </trkpt>
      <trkpt lat="49.26344" lon="0.15677">
        <ele>78</ele>
        <time>2021-03-23T13:54:37Z</time>
      </trkpt>
      <trkpt lat="49.26323" lon="0.15682">
        <ele>76.08</ele>
        <time>2021-03-23T13:54:52Z</time>
      </trkpt>
      <trkpt lat="49.26302" lon="0.15701">
        <ele>74.64</ele>
        <time>2021-03-23T13:55:12Z</time>
      </trkpt>
      <trkpt lat="49.2629" lon="0.15702">
        <ele>73.2</ele>
        <time>2021-03-23T13:55:27Z</time>
      </trkpt>
      <trkpt lat="49.26272" lon="0.15696">
        <ele>72.72</ele>
        <time>2021-03-23T13:55:44Z</time>
      </trkpt>
      <trkpt lat="49.26253" lon="0.15683">
        <ele>75.6</ele>
        <time>2021-03-23T13:56:03Z</time>
      </trkpt>
      <trkpt lat="49.26236" lon="0.15673">
        <ele>78</ele>
        <time>2021-03-23T13:56:20Z</time>
      </trkpt>
      <trkpt lat="49.26219" lon="0.15664">
        <ele>79.93</ele>
        <time>2021-03-23T13:56:38Z</time>
      </trkpt>
      <trkpt lat="49.26205" lon="0.15652">
        <ele>82.33</ele>
        <time>2021-03-23T13:56:56Z</time>
      </trkpt>
      <trkpt lat="49.26192" lon="0.15637">
        <ele>84.25</ele>
        <time>2021-03-23T13:57:12Z</time>
      </trkpt>
      <trkpt lat="49.26188" lon="0.15628">
        <ele>84.73</ele>
        <time>2021-03-23T13:57:19Z</time>
      </trkpt>
      <trkpt lat="49.26183" lon="0.15602">
        <ele>86.66</ele>
        <time>2021-03-23T13:57:36Z</time>
      </trkpt>
      <trkpt lat="49.26182" lon="0.1558">
        <ele>88.58</ele>
        <time>2021-03-23T13:57:51Z</time>
      </trkpt>
      <trkpt lat="49.26184" lon="0.15557">
        <ele>90.5</ele>
        <time>2021-03-23T13:58:07Z</time>
      </trkpt>
      <trkpt lat="49.26184" lon="0.15554">
        <ele>90.5</ele>
        <time>2021-03-23T13:58:09Z</time>
      </trkpt>
      <trkpt lat="49.26188" lon="0.15532">
        <ele>92.42</ele>
        <time>2021-03-23T13:58:25Z</time>
      </trkpt>
      <trkpt lat="49.26191" lon="0.15508">
        <ele>94.35</ele>
        <time>2021-03-23T13:58:42Z</time>
      </trkpt>
      <trkpt lat="49.26194" lon="0.15488">
        <ele>96.27</ele>
        <time>2021-03-23T13:58:57Z</time>
      </trkpt>
      <trkpt lat="49.26195" lon="0.15486">
        <ele>96.27</ele>
        <time>2021-03-23T13:58:58Z</time>
      </trkpt>
      <trkpt lat="49.26197" lon="0.15459">
        <ele>98.67</ele>
        <time>2021-03-23T13:59:17Z</time>
      </trkpt>
      <trkpt lat="49.26199" lon="0.15435">
        <ele>101.08</ele>
        <time>2021-03-23T13:59:34Z</time>
      </trkpt>
      <trkpt lat="49.26199" lon="0.1541">
        <ele>103</ele>
        <time>2021-03-23T13:59:51Z</time>
      </trkpt>
      <trkpt lat="49.26195" lon="0.15378">
        <ele>104.92</ele>
        <time>2021-03-23T14:00:11Z</time>
      </trkpt>
      <trkpt lat="49.26188" lon="0.15346">
        <ele>105.88</ele>
        <time>2021-03-23T14:00:31Z</time>
      </trkpt>
      <trkpt lat="49.26173" lon="0.15325">
        <ele>106.36</ele>
        <time>2021-03-23T14:00:49Z</time>
      </trkpt>
      <trkpt lat="49.26153" lon="0.15311">
        <ele>106.36</ele>
        <time>2021-03-23T14:01:09Z</time>
      </trkpt>
      <trkpt lat="49.26135" lon="0.15303">
        <ele>106.36</ele>
        <time>2021-03-23T14:01:27Z</time>
      </trkpt>
      <trkpt lat="49.26115" lon="0.15292">
        <ele>106.36</ele>
        <time>2021-03-23T14:01:46Z</time>
      </trkpt>
      <trkpt lat="49.2609" lon="0.15278">
        <ele>106.36</ele>
        <time>2021-03-23T14:02:07Z</time>
      </trkpt>
      <trkpt lat="49.26067" lon="0.15266">
        <ele>106.36</ele>
        <time>2021-03-23T14:02:27Z</time>
      </trkpt>
      <trkpt lat="49.2605" lon="0.15256">
        <ele>106.36</ele>
        <time>2021-03-23T14:02:46Z</time>
      </trkpt>
      <trkpt lat="49.26034" lon="0.15247">
        <ele>106.36</ele>
        <time>2021-03-23T14:03:03Z</time>
      </trkpt>
      <trkpt lat="49.26018" lon="0.15235">
        <ele>106.36</ele>
        <time>2021-03-23T14:03:18Z</time>
      </trkpt>
      <trkpt lat="49.25997" lon="0.15222">
        <ele>106.36</ele>
        <time>2021-03-23T14:03:35Z</time>
      </trkpt>
      <trkpt lat="49.25974" lon="0.15215">
        <ele>106.36</ele>
        <time>2021-03-23T14:03:55Z</time>
      </trkpt>
      <trkpt lat="49.25961" lon="0.15212">
        <ele>106.36</ele>
        <time>2021-03-23T14:04:10Z</time>
      </trkpt>
      <trkpt lat="49.25937" lon="0.15207">
        <ele>106.36</ele>
        <time>2021-03-23T14:04:31Z</time>
      </trkpt>
      <trkpt lat="49.2592" lon="0.15204">
        <ele>106.36</ele>
        <time>2021-03-23T14:04:47Z</time>
      </trkpt>
      <trkpt lat="49.25898" lon="0.15197">
        <ele>106.36</ele>
        <time>2021-03-23T14:05:05Z</time>
      </trkpt>
      <trkpt lat="49.25883" lon="0.15194">
        <ele>106.36</ele>
        <time>2021-03-23T14:05:21Z</time>
      </trkpt>
      <trkpt lat="49.25878" lon="0.15191">
        <ele>106.36</ele>
        <time>2021-03-23T14:05:35Z</time>
      </trkpt>
      <trkpt lat="49.25859" lon="0.15183">
        <ele>104.92</ele>
        <time>2021-03-23T14:05:55Z</time>
      </trkpt>
      <trkpt lat="49.25847" lon="0.15172">
        <ele>104.92</ele>
        <time>2021-03-23T14:06:12Z</time>
      </trkpt>
      <trkpt lat="49.25845" lon="0.15173">
        <ele>104.44</ele>
        <time>2021-03-23T14:06:28Z</time>
      </trkpt>
      <trkpt lat="49.25841" lon="0.15173">
        <ele>104.44</ele>
        <time>2021-03-23T14:06:49Z</time>
      </trkpt>
      <trkpt lat="49.25832" lon="0.15166">
        <ele>104.44</ele>
        <time>2021-03-23T14:06:59Z</time>
      </trkpt>
      <trkpt lat="49.25811" lon="0.15154">
        <ele>104.44</ele>
        <time>2021-03-23T14:07:20Z</time>
      </trkpt>
      <trkpt lat="49.25786" lon="0.15164">
        <ele>103.48</ele>
        <time>2021-03-23T14:07:42Z</time>
      </trkpt>
      <trkpt lat="49.25766" lon="0.15185">
        <ele>103.48</ele>
        <time>2021-03-23T14:08:04Z</time>
      </trkpt>
      <trkpt lat="49.25751" lon="0.15199">
        <ele>103.48</ele>
        <time>2021-03-23T14:08:20Z</time>
      </trkpt>
      <trkpt lat="49.2573" lon="0.15206">
        <ele>103.48</ele>
        <time>2021-03-23T14:08:39Z</time>
      </trkpt>
      <trkpt lat="49.25715" lon="0.15213">
        <ele>103.48</ele>
        <time>2021-03-23T14:08:58Z</time>
      </trkpt>
      <trkpt lat="49.25695" lon="0.1522">
        <ele>102.52</ele>
        <time>2021-03-23T14:09:16Z</time>
      </trkpt>
      <trkpt lat="49.25688" lon="0.15219">
        <ele>102.52</ele>
        <time>2021-03-23T14:09:22Z</time>
      </trkpt>
      <trkpt lat="49.25659" lon="0.15215">
        <ele>101.08</ele>
        <time>2021-03-23T14:09:44Z</time>
      </trkpt>
      <trkpt lat="49.2564" lon="0.15192">
        <ele>100.6</ele>
        <time>2021-03-23T14:10:03Z</time>
      </trkpt>
      <trkpt lat="49.2564" lon="0.15174">
        <ele>100.11</ele>
        <time>2021-03-23T14:10:18Z</time>
      </trkpt>
      <trkpt lat="49.2564" lon="0.15152">
        <ele>99.15</ele>
        <time>2021-03-23T14:10:33Z</time>
      </trkpt>
      <trkpt lat="49.25644" lon="0.15146">
        <ele>99.15</ele>
        <time>2021-03-23T14:10:54Z</time>
      </trkpt>
      <trkpt lat="49.25649" lon="0.15141">
        <ele>99.15</ele>
        <time>2021-03-23T14:11:28Z</time>
      </trkpt>
      <trkpt lat="49.25653" lon="0.15141">
        <ele>99.15</ele>
        <time>2021-03-23T14:11:54Z</time>
      </trkpt>
      <trkpt lat="49.25642" lon="0.15134">
        <ele>96.75</ele>
        <time>2021-03-23T14:12:17Z</time>
      </trkpt>
      <trkpt lat="49.25632" lon="0.15124">
        <ele>94.83</ele>
        <time>2021-03-23T14:12:33Z</time>
      </trkpt>
      <trkpt lat="49.25622" lon="0.15115">
        <ele>92.42</ele>
        <time>2021-03-23T14:12:49Z</time>
      </trkpt>
      <trkpt lat="49.25611" lon="0.15104">
        <ele>89.06</ele>
        <time>2021-03-23T14:13:08Z</time>
      </trkpt>
      <trkpt lat="49.25603" lon="0.15096">
        <ele>85.69</ele>
        <time>2021-03-23T14:13:23Z</time>
      </trkpt>
      <trkpt lat="49.25594" lon="0.15087">
        <ele>83.29</ele>
        <time>2021-03-23T14:13:39Z</time>
      </trkpt>
      <trkpt lat="49.25586" lon="0.1508">
        <ele>79.93</ele>
        <time>2021-03-23T14:13:55Z</time>
      </trkpt>
      <trkpt lat="49.25574" lon="0.15072">
        <ele>77.52</ele>
        <time>2021-03-23T14:14:11Z</time>
      </trkpt>
      <trkpt lat="49.25563" lon="0.15065">
        <ele>74.64</ele>
        <time>2021-03-23T14:14:27Z</time>
      </trkpt>
      <trkpt lat="49.25553" lon="0.15058">
        <ele>71.76</ele>
        <time>2021-03-23T14:14:43Z</time>
      </trkpt>
      <trkpt lat="49.25543" lon="0.15053">
        <ele>69.83</ele>
        <time>2021-03-23T14:14:58Z</time>
      </trkpt>
      <trkpt lat="49.25536" lon="0.15047">
        <ele>66.95</ele>
        <time>2021-03-23T14:15:12Z</time>
      </trkpt>
      <trkpt lat="49.25525" lon="0.15042">
        <ele>65.51</ele>
        <time>2021-03-23T14:15:28Z</time>
      </trkpt>
      <trkpt lat="49.25515" lon="0.15032">
        <ele>64.55</ele>
        <time>2021-03-23T14:15:45Z</time>
      </trkpt>
      <trkpt lat="49.25515" lon="0.15021">
        <ele>64.55</ele>
        <time>2021-03-23T14:16:02Z</time>
      </trkpt>
      <trkpt lat="49.25515" lon="0.1502">
        <ele>64.55</ele>
        <time>2021-03-23T14:16:21Z</time>
      </trkpt>
      <trkpt lat="49.25516" lon="0.15024">
        <ele>64.55</ele>
        <time>2021-03-23T14:16:46Z</time>
      </trkpt>
      <trkpt lat="49.25517" lon="0.15026">
        <ele>65.99</ele>
        <time>2021-03-23T14:17:03Z</time>
      </trkpt>
      <trkpt lat="49.25518" lon="0.1502">
        <ele>65.99</ele>
        <time>2021-03-23T14:17:20Z</time>
      </trkpt>
      <trkpt lat="49.2552" lon="0.14995">
        <ele>65.99</ele>
        <time>2021-03-23T14:17:35Z</time>
      </trkpt>
      <trkpt lat="49.25524" lon="0.1498">
        <ele>66.47</ele>
        <time>2021-03-23T14:17:45Z</time>
      </trkpt>
      <trkpt lat="49.25533" lon="0.14956">
        <ele>66.95</ele>
        <time>2021-03-23T14:18:02Z</time>
      </trkpt>
      <trkpt lat="49.25536" lon="0.14944">
        <ele>67.43</ele>
        <time>2021-03-23T14:18:10Z</time>
      </trkpt>
      <trkpt lat="49.25539" lon="0.1494">
        <ele>67.43</ele>
        <time>2021-03-23T14:18:13Z</time>
      </trkpt>
      <trkpt lat="49.25548" lon="0.14916">
        <ele>67.91</ele>
        <time>2021-03-23T14:18:30Z</time>
      </trkpt>
      <trkpt lat="49.2556" lon="0.14891">
        <ele>68.39</ele>
        <time>2021-03-23T14:18:47Z</time>
      </trkpt>
      <trkpt lat="49.25572" lon="0.14872">
        <ele>68.87</ele>
        <time>2021-03-23T14:19:01Z</time>
      </trkpt>
      <trkpt lat="49.25582" lon="0.14852">
        <ele>69.35</ele>
        <time>2021-03-23T14:19:16Z</time>
      </trkpt>
      <trkpt lat="49.25586" lon="0.14844">
        <ele>69.35</ele>
        <time>2021-03-23T14:19:23Z</time>
      </trkpt>
      <trkpt lat="49.25597" lon="0.14828">
        <ele>70.31</ele>
        <time>2021-03-23T14:19:37Z</time>
      </trkpt>
      <trkpt lat="49.25609" lon="0.14811">
        <ele>71.27</ele>
        <time>2021-03-23T14:19:51Z</time>
      </trkpt>
      <trkpt lat="49.25619" lon="0.14792">
        <ele>72.24</ele>
        <time>2021-03-23T14:20:07Z</time>
      </trkpt>
      <trkpt lat="49.25627" lon="0.14778">
        <ele>73.2</ele>
        <time>2021-03-23T14:20:21Z</time>
      </trkpt>
      <trkpt lat="49.25643" lon="0.14757">
        <ele>75.6</ele>
        <time>2021-03-23T14:20:37Z</time>
      </trkpt>
      <trkpt lat="49.25656" lon="0.14734">
        <ele>77.04</ele>
        <time>2021-03-23T14:20:52Z</time>
      </trkpt>
      <trkpt lat="49.25662" lon="0.1471">
        <ele>78</ele>
        <time>2021-03-23T14:21:09Z</time>
      </trkpt>
      <trkpt lat="49.25675" lon="0.14692">
        <ele>79.45</ele>
        <time>2021-03-23T14:21:28Z</time>
      </trkpt>
      <trkpt lat="49.25683" lon="0.14674">
        <ele>79.93</ele>
        <time>2021-03-23T14:21:43Z</time>
      </trkpt>
      <trkpt lat="49.25687" lon="0.14654">
        <ele>80.41</ele>
        <time>2021-03-23T14:21:56Z</time>
      </trkpt>
      <trkpt lat="49.25695" lon="0.14635">
        <ele>80.89</ele>
        <time>2021-03-23T14:22:10Z</time>
      </trkpt>
      <trkpt lat="49.25708" lon="0.14618">
        <ele>81.85</ele>
        <time>2021-03-23T14:22:24Z</time>
      </trkpt>
      <trkpt lat="49.25708" lon="0.14612">
        <ele>81.85</ele>
        <time>2021-03-23T14:22:29Z</time>
      </trkpt>
      <trkpt lat="49.25713" lon="0.14597">
        <ele>82.33</ele>
        <time>2021-03-23T14:22:39Z</time>
      </trkpt>
      <trkpt lat="49.25729" lon="0.14576">
        <ele>83.29</ele>
        <time>2021-03-23T14:22:57Z</time>
      </trkpt>
      <trkpt lat="49.25743" lon="0.14563">
        <ele>84.25</ele>
        <time>2021-03-23T14:23:11Z</time>
      </trkpt>
      <trkpt lat="49.2576" lon="0.14547">
        <ele>85.21</ele>
        <time>2021-03-23T14:23:27Z</time>
      </trkpt>
      <trkpt lat="49.25775" lon="0.14533">
        <ele>86.18</ele>
        <time>2021-03-23T14:23:43Z</time>
      </trkpt>
      <trkpt lat="49.2579" lon="0.14516">
        <ele>87.14</ele>
        <time>2021-03-23T14:23:59Z</time>
      </trkpt>
      <trkpt lat="49.25803" lon="0.14501">
        <ele>88.1</ele>
        <time>2021-03-23T14:24:15Z</time>
      </trkpt>
      <trkpt lat="49.25811" lon="0.1449">
        <ele>88.58</ele>
        <time>2021-03-23T14:24:25Z</time>
      </trkpt>
      <trkpt lat="49.25825" lon="0.14471">
        <ele>90.02</ele>
        <time>2021-03-23T14:24:43Z</time>
      </trkpt>
      <trkpt lat="49.25837" lon="0.14459">
        <ele>90.98</ele>
        <time>2021-03-23T14:24:56Z</time>
      </trkpt>
      <trkpt lat="49.25844" lon="0.14456">
        <ele>91.46</ele>
        <time>2021-03-23T14:25:02Z</time>
      </trkpt>
      <trkpt lat="49.25854" lon="0.14439">
        <ele>92.42</ele>
        <time>2021-03-23T14:25:19Z</time>
      </trkpt>
      <trkpt lat="49.25866" lon="0.1442">
        <ele>92.9</ele>
        <time>2021-03-23T14:25:35Z</time>
      </trkpt>
      <trkpt lat="49.25883" lon="0.14402">
        <ele>93.87</ele>
        <time>2021-03-23T14:25:53Z</time>
      </trkpt>
      <trkpt lat="49.25896" lon="0.14385">
        <ele>94.83</ele>
        <time>2021-03-23T14:26:09Z</time>
      </trkpt>
      <trkpt lat="49.25908" lon="0.14368">
        <ele>96.27</ele>
        <time>2021-03-23T14:26:28Z</time>
      </trkpt>
      <trkpt lat="49.25918" lon="0.14355">
        <ele>96.75</ele>
        <time>2021-03-23T14:26:41Z</time>
      </trkpt>
      <trkpt lat="49.25931" lon="0.14339">
        <ele>97.23</ele>
        <time>2021-03-23T14:26:57Z</time>
      </trkpt>
      <trkpt lat="49.25942" lon="0.14325">
        <ele>97.71</ele>
        <time>2021-03-23T14:27:12Z</time>
      </trkpt>
      <trkpt lat="49.25954" lon="0.14309">
        <ele>98.67</ele>
        <time>2021-03-23T14:27:27Z</time>
      </trkpt>
      <trkpt lat="49.25968" lon="0.14291">
        <ele>100.11</ele>
        <time>2021-03-23T14:27:43Z</time>
      </trkpt>
      <trkpt lat="49.25981" lon="0.14276">
        <ele>101.56</ele>
        <time>2021-03-23T14:28:00Z</time>
      </trkpt>
      <trkpt lat="49.25995" lon="0.14265">
        <ele>103</ele>
        <time>2021-03-23T14:28:17Z</time>
      </trkpt>
      <trkpt lat="49.26014" lon="0.14252">
        <ele>104.44</ele>
        <time>2021-03-23T14:28:36Z</time>
      </trkpt>
      <trkpt lat="49.26024" lon="0.14243">
        <ele>104.92</ele>
        <time>2021-03-23T14:28:52Z</time>
      </trkpt>
      <trkpt lat="49.26026" lon="0.1424">
        <ele>104.92</ele>
        <time>2021-03-23T14:29:03Z</time>
      </trkpt>
      <trkpt lat="49.26023" lon="0.14237">
        <ele>103.48</ele>
        <time>2021-03-23T14:29:08Z</time>
      </trkpt>
      <trkpt lat="49.26025" lon="0.14237">
        <ele>103.48</ele>
        <time>2021-03-23T14:29:24Z</time>
      </trkpt>
      <trkpt lat="49.26027" lon="0.14238">
        <ele>103.48</ele>
        <time>2021-03-23T14:29:49Z</time>
      </trkpt>
      <trkpt lat="49.26029" lon="0.14245">
        <ele>104.92</ele>
        <time>2021-03-23T14:30:03Z</time>
      </trkpt>
      <trkpt lat="49.26029" lon="0.14242">
        <ele>104.92</ele>
        <time>2021-03-23T14:30:27Z</time>
      </trkpt>
      <trkpt lat="49.26026" lon="0.14236">
        <ele>104.92</ele>
        <time>2021-03-23T14:30:51Z</time>
      </trkpt>
      <trkpt lat="49.26018" lon="0.14232">
        <ele>103.96</ele>
        <time>2021-03-23T14:31:04Z</time>
      </trkpt>
      <trkpt lat="49.25996" lon="0.1422">
        <ele>103.96</ele>
        <time>2021-03-23T14:31:24Z</time>
      </trkpt>
      <trkpt lat="49.25972" lon="0.14201">
        <ele>103.96</ele>
        <time>2021-03-23T14:31:45Z</time>
      </trkpt>
      <trkpt lat="49.25946" lon="0.14185">
        <ele>103.96</ele>
        <time>2021-03-23T14:32:07Z</time>
      </trkpt>
      <trkpt lat="49.25923" lon="0.1418">
        <ele>103.96</ele>
        <time>2021-03-23T14:32:28Z</time>
      </trkpt>
      <trkpt lat="49.25911" lon="0.14181">
        <ele>105.4</ele>
        <time>2021-03-23T14:32:37Z</time>
      </trkpt>
      <trkpt lat="49.25888" lon="0.14183">
        <ele>106.36</ele>
        <time>2021-03-23T14:32:58Z</time>
      </trkpt>
      <trkpt lat="49.25864" lon="0.1417">
        <ele>107.81</ele>
        <time>2021-03-23T14:33:20Z</time>
      </trkpt>
      <trkpt lat="49.25842" lon="0.14159">
        <ele>109.73</ele>
        <time>2021-03-23T14:33:41Z</time>
      </trkpt>
      <trkpt lat="49.25829" lon="0.14154">
        <ele>109.73</ele>
        <time>2021-03-23T14:34:02Z</time>
      </trkpt>
      <trkpt lat="49.25814" lon="0.14143">
        <ele>110.21</ele>
        <time>2021-03-23T14:34:20Z</time>
      </trkpt>
      <trkpt lat="49.25794" lon="0.14127">
        <ele>111.17</ele>
        <time>2021-03-23T14:34:40Z</time>
      </trkpt>
      <trkpt lat="49.25773" lon="0.14096">
        <ele>111.17</ele>
        <time>2021-03-23T14:35:03Z</time>
      </trkpt>
      <trkpt lat="49.25764" lon="0.14062">
        <ele>112.13</ele>
        <time>2021-03-23T14:35:27Z</time>
      </trkpt>
      <trkpt lat="49.25759" lon="0.14055">
        <ele>111.65</ele>
        <time>2021-03-23T14:35:44Z</time>
      </trkpt>
      <trkpt lat="49.25755" lon="0.14048">
        <ele>111.65</ele>
        <time>2021-03-23T14:35:59Z</time>
      </trkpt>
      <trkpt lat="49.25754" lon="0.14046">
        <ele>111.65</ele>
        <time>2021-03-23T14:36:22Z</time>
      </trkpt>
      <trkpt lat="49.25753" lon="0.14048">
        <ele>111.65</ele>
        <time>2021-03-23T14:36:31Z</time>
      </trkpt>
      <trkpt lat="49.25747" lon="0.14064">
        <ele>112.13</ele>
        <time>2021-03-23T14:36:42Z</time>
      </trkpt>
      <trkpt lat="49.2573" lon="0.14095">
        <ele>112.13</ele>
        <time>2021-03-23T14:37:03Z</time>
      </trkpt>
      <trkpt lat="49.2572" lon="0.14111">
        <ele>110.69</ele>
        <time>2021-03-23T14:37:15Z</time>
      </trkpt>
      <trkpt lat="49.25702" lon="0.14137">
        <ele>110.21</ele>
        <time>2021-03-23T14:37:36Z</time>
      </trkpt>
      <trkpt lat="49.25687" lon="0.14159">
        <ele>109.73</ele>
        <time>2021-03-23T14:37:58Z</time>
      </trkpt>
      <trkpt lat="49.25687" lon="0.14158">
        <ele>109.73</ele>
        <time>2021-03-23T14:37:59Z</time>
      </trkpt>
      <trkpt lat="49.25698" lon="0.1414">
        <ele>109.73</ele>
        <time>2021-03-23T14:38:12Z</time>
      </trkpt>
      <trkpt lat="49.25706" lon="0.14133">
        <ele>110.21</ele>
        <time>2021-03-23T14:38:19Z</time>
      </trkpt>
      <trkpt lat="49.25708" lon="0.14128">
        <ele>110.21</ele>
        <time>2021-03-23T14:38:22Z</time>
      </trkpt>
      <trkpt lat="49.25718" lon="0.14112">
        <ele>111.17</ele>
        <time>2021-03-23T14:38:35Z</time>
      </trkpt>
      <trkpt lat="49.25727" lon="0.14097">
        <ele>111.65</ele>
        <time>2021-03-23T14:38:45Z</time>
      </trkpt>
      <trkpt lat="49.25734" lon="0.14086">
        <ele>111.65</ele>
        <time>2021-03-23T14:38:54Z</time>
      </trkpt>
      <trkpt lat="49.2574" lon="0.14081">
        <ele>111.65</ele>
        <time>2021-03-23T14:39:00Z</time>
      </trkpt>
      <trkpt lat="49.25745" lon="0.14075">
        <ele>112.13</ele>
        <time>2021-03-23T14:39:05Z</time>
      </trkpt>
      <trkpt lat="49.25747" lon="0.14067">
        <ele>112.13</ele>
        <time>2021-03-23T14:39:10Z</time>
      </trkpt>
      <trkpt lat="49.2575" lon="0.14053">
        <ele>112.13</ele>
        <time>2021-03-23T14:39:19Z</time>
      </trkpt>
      <trkpt lat="49.25741" lon="0.14038">
        <ele>112.61</ele>
        <time>2021-03-23T14:39:34Z</time>
      </trkpt>
      <trkpt lat="49.25717" lon="0.14012">
        <ele>113.09</ele>
        <time>2021-03-23T14:39:55Z</time>
      </trkpt>
      <trkpt lat="49.257" lon="0.13995">
        <ele>113.09</ele>
        <time>2021-03-23T14:40:14Z</time>
      </trkpt>
      <trkpt lat="49.25671" lon="0.13976">
        <ele>113.09</ele>
        <time>2021-03-23T14:40:35Z</time>
      </trkpt>
      <trkpt lat="49.25649" lon="0.13974">
        <ele>111.17</ele>
        <time>2021-03-23T14:40:54Z</time>
      </trkpt>
      <trkpt lat="49.25628" lon="0.13963">
        <ele>110.69</ele>
        <time>2021-03-23T14:41:15Z</time>
      </trkpt>
      <trkpt lat="49.2561" lon="0.13948">
        <ele>110.69</ele>
        <time>2021-03-23T14:41:35Z</time>
      </trkpt>
      <trkpt lat="49.25583" lon="0.13916">
        <ele>111.65</ele>
        <time>2021-03-23T14:41:55Z</time>
      </trkpt>
      <trkpt lat="49.2556" lon="0.13891">
        <ele>111.65</ele>
        <time>2021-03-23T14:42:21Z</time>
      </trkpt>
      <trkpt lat="49.25543" lon="0.13862">
        <ele>111.65</ele>
        <time>2021-03-23T14:42:46Z</time>
      </trkpt>
      <trkpt lat="49.2553" lon="0.13832">
        <ele>112.13</ele>
        <time>2021-03-23T14:43:08Z</time>
      </trkpt>
      <trkpt lat="49.25521" lon="0.1379">
        <ele>112.61</ele>
        <time>2021-03-23T14:43:31Z</time>
      </trkpt>
      <trkpt lat="49.25515" lon="0.1375">
        <ele>112.61</ele>
        <time>2021-03-23T14:43:57Z</time>
      </trkpt>
      <trkpt lat="49.25503" lon="0.13698">
        <ele>112.61</ele>
        <time>2021-03-23T14:44:20Z</time>
      </trkpt>
      <trkpt lat="49.25494" lon="0.13652">
        <ele>111.65</ele>
        <time>2021-03-23T14:44:40Z</time>
      </trkpt>
      <trkpt lat="49.25484" lon="0.13613">
        <ele>111.17</ele>
        <time>2021-03-23T14:45:01Z</time>
      </trkpt>
      <trkpt lat="49.25474" lon="0.13582">
        <ele>110.21</ele>
        <time>2021-03-23T14:45:21Z</time>
      </trkpt>
      <trkpt lat="49.25463" lon="0.13551">
        <ele>109.73</ele>
        <time>2021-03-23T14:45:43Z</time>
      </trkpt>
      <trkpt lat="49.25449" lon="0.13527">
        <ele>109.73</ele>
        <time>2021-03-23T14:46:02Z</time>
      </trkpt>
      <trkpt lat="49.2545" lon="0.13528">
        <ele>109.73</ele>
        <time>2021-03-23T14:46:22Z</time>
      </trkpt>
      <trkpt lat="49.25449" lon="0.13529">
        <ele>109.73</ele>
        <time>2021-03-23T14:46:48Z</time>
      </trkpt>
      <trkpt lat="49.25448" lon="0.13531">
        <ele>109.73</ele>
        <time>2021-03-23T14:47:06Z</time>
      </trkpt>
      <trkpt lat="49.25447" lon="0.13531">
        <ele>110.21</ele>
        <time>2021-03-23T14:47:12Z</time>
      </trkpt>
      <trkpt lat="49.25433" lon="0.13548">
        <ele>110.21</ele>
        <time>2021-03-23T14:47:29Z</time>
      </trkpt>
      <trkpt lat="49.25422" lon="0.13565">
        <ele>110.21</ele>
        <time>2021-03-23T14:47:45Z</time>
      </trkpt>
      <trkpt lat="49.25407" lon="0.13585">
        <ele>110.21</ele>
        <time>2021-03-23T14:48:02Z</time>
      </trkpt>
      <trkpt lat="49.25386" lon="0.1361">
        <ele>110.21</ele>
        <time>2021-03-23T14:48:23Z</time>
      </trkpt>
      <trkpt lat="49.25381" lon="0.13617">
        <ele>110.21</ele>
        <time>2021-03-23T14:48:28Z</time>
      </trkpt>
      <trkpt lat="49.2538" lon="0.13619">
        <ele>110.21</ele>
        <time>2021-03-23T14:48:30Z</time>
      </trkpt>
      <trkpt lat="49.25361" lon="0.13654">
        <ele>110.21</ele>
        <time>2021-03-23T14:48:54Z</time>
      </trkpt>
      <trkpt lat="49.2536" lon="0.13655">
        <ele>110.21</ele>
        <time>2021-03-23T14:48:55Z</time>
      </trkpt>
      <trkpt lat="49.25357" lon="0.13661">
        <ele>110.21</ele>
        <time>2021-03-23T14:48:59Z</time>
      </trkpt>
      <trkpt lat="49.25343" lon="0.13697">
        <ele>110.69</ele>
        <time>2021-03-23T14:49:21Z</time>
      </trkpt>
      <trkpt lat="49.25334" lon="0.13726">
        <ele>110.69</ele>
        <time>2021-03-23T14:49:39Z</time>
      </trkpt>
      <trkpt lat="49.25328" lon="0.13748">
        <ele>110.21</ele>
        <time>2021-03-23T14:49:53Z</time>
      </trkpt>
      <trkpt lat="49.25323" lon="0.13764">
        <ele>110.69</ele>
        <time>2021-03-23T14:50:02Z</time>
      </trkpt>
      <trkpt lat="49.25318" lon="0.13785">
        <ele>110.69</ele>
        <time>2021-03-23T14:50:13Z</time>
      </trkpt>
      <trkpt lat="49.2531" lon="0.13814">
        <ele>110.69</ele>
        <time>2021-03-23T14:50:32Z</time>
      </trkpt>
      <trkpt lat="49.25299" lon="0.13843">
        <ele>110.69</ele>
        <time>2021-03-23T14:50:51Z</time>
      </trkpt>
      <trkpt lat="49.25283" lon="0.13871">
        <ele>110.69</ele>
        <time>2021-03-23T14:51:11Z</time>
      </trkpt>
      <trkpt lat="49.25272" lon="0.13886">
        <ele>110.69</ele>
        <time>2021-03-23T14:51:28Z</time>
      </trkpt>
      <trkpt lat="49.2525" lon="0.13911">
        <ele>110.21</ele>
        <time>2021-03-23T14:51:51Z</time>
      </trkpt>
      <trkpt lat="49.25239" lon="0.13908">
        <ele>109.73</ele>
        <time>2021-03-23T14:52:06Z</time>
      </trkpt>
      <trkpt lat="49.25239" lon="0.13908">
        <ele>109.73</ele>
        <time>2021-03-23T14:52:31Z</time>
      </trkpt>
      <trkpt lat="49.25238" lon="0.13908">
        <ele>110.21</ele>
        <time>2021-03-23T14:52:58Z</time>
      </trkpt>
      <trkpt lat="49.25238" lon="0.1391">
        <ele>110.21</ele>
        <time>2021-03-23T14:53:24Z</time>
      </trkpt>
      <trkpt lat="49.25238" lon="0.1391">
        <ele>110.21</ele>
        <time>2021-03-23T14:53:41Z</time>
      </trkpt>
      <trkpt lat="49.25237" lon="0.1391">
        <ele>110.21</ele>
        <time>2021-03-23T14:53:54Z</time>
      </trkpt>
      <trkpt lat="49.25237" lon="0.13919">
        <ele>110.21</ele>
        <time>2021-03-23T14:53:58Z</time>
      </trkpt>
      <trkpt lat="49.25233" lon="0.13927">
        <ele>110.21</ele>
        <time>2021-03-23T14:54:04Z</time>
      </trkpt>
      <trkpt lat="49.25216" lon="0.13952">
        <ele>109.73</ele>
        <time>2021-03-23T14:54:23Z</time>
      </trkpt>
      <trkpt lat="49.25201" lon="0.13981">
        <ele>109.73</ele>
        <time>2021-03-23T14:54:44Z</time>
      </trkpt>
      <trkpt lat="49.25179" lon="0.14009">
        <ele>109.25</ele>
        <time>2021-03-23T14:55:06Z</time>
      </trkpt>
      <trkpt lat="49.25155" lon="0.1403">
        <ele>108.29</ele>
        <time>2021-03-23T14:55:29Z</time>
      </trkpt>
      <trkpt lat="49.25126" lon="0.14047">
        <ele>107.32</ele>
        <time>2021-03-23T14:55:53Z</time>
      </trkpt>
      <trkpt lat="49.25108" lon="0.14055">
        <ele>106.36</ele>
        <time>2021-03-23T14:56:13Z</time>
      </trkpt>
      <trkpt lat="49.25106" lon="0.14059">
        <ele>105.88</ele>
        <time>2021-03-23T14:56:46Z</time>
      </trkpt>
      <trkpt lat="49.25094" lon="0.14067">
        <ele>105.88</ele>
        <time>2021-03-23T14:56:57Z</time>
      </trkpt>
      <trkpt lat="49.25085" lon="0.14071">
        <ele>104.44</ele>
        <time>2021-03-23T14:57:05Z</time>
      </trkpt>
      <trkpt lat="49.25067" lon="0.14081">
        <ele>101.56</ele>
        <time>2021-03-23T14:57:23Z</time>
      </trkpt>
      <trkpt lat="49.25053" lon="0.14086">
        <ele>99.63</ele>
        <time>2021-03-23T14:57:38Z</time>
      </trkpt>
      <trkpt lat="49.25039" lon="0.14084">
        <ele>96.27</ele>
        <time>2021-03-23T14:57:53Z</time>
      </trkpt>
      <trkpt lat="49.25025" lon="0.14077">
        <ele>93.87</ele>
        <time>2021-03-23T14:58:07Z</time>
      </trkpt>
      <trkpt lat="49.25014" lon="0.14072">
        <ele>92.42</ele>
        <time>2021-03-23T14:58:20Z</time>
      </trkpt>
      <trkpt lat="49.25004" lon="0.14065">
        <ele>90.02</ele>
        <time>2021-03-23T14:58:36Z</time>
      </trkpt>
      <trkpt lat="49.24994" lon="0.14053">
        <ele>88.1</ele>
        <time>2021-03-23T14:58:51Z</time>
      </trkpt>
      <trkpt lat="49.24976" lon="0.14042">
        <ele>85.69</ele>
        <time>2021-03-23T14:59:06Z</time>
      </trkpt>
      <trkpt lat="49.24966" lon="0.14046">
        <ele>83.29</ele>
        <time>2021-03-23T14:59:18Z</time>
      </trkpt>
      <trkpt lat="49.24962" lon="0.14062">
        <ele>81.37</ele>
        <time>2021-03-23T14:59:32Z</time>
      </trkpt>
      <trkpt lat="49.24959" lon="0.14079">
        <ele>79.45</ele>
        <time>2021-03-23T14:59:46Z</time>
      </trkpt>
      <trkpt lat="49.24949" lon="0.14106">
        <ele>77.52</ele>
        <time>2021-03-23T15:00:02Z</time>
      </trkpt>
      <trkpt lat="49.24938" lon="0.14125">
        <ele>75.6</ele>
        <time>2021-03-23T15:00:18Z</time>
      </trkpt>
      <trkpt lat="49.24925" lon="0.14135">
        <ele>73.68</ele>
        <time>2021-03-23T15:00:34Z</time>
      </trkpt>
      <trkpt lat="49.24914" lon="0.14151">
        <ele>72.72</ele>
        <time>2021-03-23T15:00:46Z</time>
      </trkpt>
      <trkpt lat="49.24911" lon="0.14151">
        <ele>71.76</ele>
        <time>2021-03-23T15:00:51Z</time>
      </trkpt>
      <trkpt lat="49.249" lon="0.14162">
        <ele>70.31</ele>
        <time>2021-03-23T15:01:03Z</time>
      </trkpt>
      <trkpt lat="49.24889" lon="0.14178">
        <ele>68.87</ele>
        <time>2021-03-23T15:01:20Z</time>
      </trkpt>
      <trkpt lat="49.24877" lon="0.142">
        <ele>67.91</ele>
        <time>2021-03-23T15:01:38Z</time>
      </trkpt>
      <trkpt lat="49.24868" lon="0.14224">
        <ele>66.47</ele>
        <time>2021-03-23T15:01:56Z</time>
      </trkpt>
      <trkpt lat="49.24858" lon="0.14243">
        <ele>65.51</ele>
        <time>2021-03-23T15:02:11Z</time>
      </trkpt>
      <trkpt lat="49.24857" lon="0.14249">
        <ele>65.03</ele>
        <time>2021-03-23T15:02:14Z</time>
      </trkpt>
      <trkpt lat="49.24847" lon="0.14271">
        <ele>64.07</ele>
        <time>2021-03-23T15:02:29Z</time>
      </trkpt>
      <trkpt lat="49.24845" lon="0.14277">
        <ele>63.58</ele>
        <time>2021-03-23T15:02:33Z</time>
      </trkpt>
      <trkpt lat="49.24835" lon="0.14302">
        <ele>62.14</ele>
        <time>2021-03-23T15:02:49Z</time>
      </trkpt>
      <trkpt lat="49.24828" lon="0.14325">
        <ele>60.22</ele>
        <time>2021-03-23T15:03:04Z</time>
      </trkpt>
      <trkpt lat="49.24821" lon="0.14353">
        <ele>58.78</ele>
        <time>2021-03-23T15:03:20Z</time>
      </trkpt>
      <trkpt lat="49.24813" lon="0.14368">
        <ele>57.82</ele>
        <time>2021-03-23T15:03:35Z</time>
      </trkpt>
      <trkpt lat="49.24806" lon="0.14384">
        <ele>54.93</ele>
        <time>2021-03-23T15:03:52Z</time>
      </trkpt>
      <trkpt lat="49.248" lon="0.14403">
        <ele>53.97</ele>
        <time>2021-03-23T15:04:07Z</time>
      </trkpt>
      <trkpt lat="49.24796" lon="0.14414">
        <ele>52.53</ele>
        <time>2021-03-23T15:04:18Z</time>
      </trkpt>
      <trkpt lat="49.24788" lon="0.14431">
        <ele>52.05</ele>
        <time>2021-03-23T15:04:32Z</time>
      </trkpt>
      <trkpt lat="49.24783" lon="0.14444">
        <ele>51.09</ele>
        <time>2021-03-23T15:04:46Z</time>
      </trkpt>
      <trkpt lat="49.24774" lon="0.14471">
        <ele>50.13</ele>
        <time>2021-03-23T15:05:01Z</time>
      </trkpt>
      <trkpt lat="49.24769" lon="0.14493">
        <ele>48.68</ele>
        <time>2021-03-23T15:05:16Z</time>
      </trkpt>
      <trkpt lat="49.24765" lon="0.14506">
        <ele>47.72</ele>
        <time>2021-03-23T15:05:30Z</time>
      </trkpt>
      <trkpt lat="49.24757" lon="0.14525">
        <ele>46.76</ele>
        <time>2021-03-23T15:05:44Z</time>
      </trkpt>
      <trkpt lat="49.24751" lon="0.14541">
        <ele>45.8</ele>
        <time>2021-03-23T15:05:59Z</time>
      </trkpt>
      <trkpt lat="49.24746" lon="0.14554">
        <ele>45.32</ele>
        <time>2021-03-23T15:06:13Z</time>
      </trkpt>
      <trkpt lat="49.24738" lon="0.14573">
        <ele>43.88</ele>
        <time>2021-03-23T15:06:31Z</time>
      </trkpt>
      <trkpt lat="49.24732" lon="0.14591">
        <ele>42.92</ele>
        <time>2021-03-23T15:06:46Z</time>
      </trkpt>
      <trkpt lat="49.24728" lon="0.14604">
        <ele>42.44</ele>
        <time>2021-03-23T15:06:56Z</time>
      </trkpt>
      <trkpt lat="49.24727" lon="0.14608">
        <ele>41.95</ele>
        <time>2021-03-23T15:07:00Z</time>
      </trkpt>
      <trkpt lat="49.24723" lon="0.14617">
        <ele>41.47</ele>
        <time>2021-03-23T15:07:12Z</time>
      </trkpt>
      <trkpt lat="49.24718" lon="0.14631">
        <ele>40.99</ele>
        <time>2021-03-23T15:07:24Z</time>
      </trkpt>
      <trkpt lat="49.24713" lon="0.14642">
        <ele>40.99</ele>
        <time>2021-03-23T15:07:39Z</time>
      </trkpt>
      <trkpt lat="49.24702" lon="0.14645">
        <ele>40.99</ele>
        <time>2021-03-23T15:07:51Z</time>
      </trkpt>
      <trkpt lat="49.24703" lon="0.14668">
        <ele>41.95</ele>
        <time>2021-03-23T15:08:10Z</time>
      </trkpt>
      <trkpt lat="49.24704" lon="0.14689">
        <ele>42.92</ele>
        <time>2021-03-23T15:08:24Z</time>
      </trkpt>
      <trkpt lat="49.2471" lon="0.14724">
        <ele>42.44</ele>
        <time>2021-03-23T15:08:43Z</time>
      </trkpt>
      <trkpt lat="49.24723" lon="0.14768">
        <ele>42.44</ele>
        <time>2021-03-23T15:09:06Z</time>
      </trkpt>
      <trkpt lat="49.24739" lon="0.14796">
        <ele>42.44</ele>
        <time>2021-03-23T15:09:28Z</time>
      </trkpt>
      <trkpt lat="49.24753" lon="0.14826">
        <ele>40.99</ele>
        <time>2021-03-23T15:09:49Z</time>
      </trkpt>
      <trkpt lat="49.24753" lon="0.14828">
        <ele>40.99</ele>
        <time>2021-03-23T15:09:50Z</time>
      </trkpt>
      <trkpt lat="49.24765" lon="0.14861">
        <ele>40.99</ele>
        <time>2021-03-23T15:10:10Z</time>
      </trkpt>
      <trkpt lat="49.24774" lon="0.14888">
        <ele>40.51</ele>
        <time>2021-03-23T15:10:30Z</time>
      </trkpt>
      <trkpt lat="49.24783" lon="0.14922">
        <ele>40.03</ele>
        <time>2021-03-23T15:10:50Z</time>
      </trkpt>
      <trkpt lat="49.24796" lon="0.14964">
        <ele>39.55</ele>
        <time>2021-03-23T15:11:13Z</time>
      </trkpt>
      <trkpt lat="49.24809" lon="0.14994">
        <ele>39.07</ele>
        <time>2021-03-23T15:11:36Z</time>
      </trkpt>
      <trkpt lat="49.24816" lon="0.15027">
        <ele>39.07</ele>
        <time>2021-03-23T15:11:55Z</time>
      </trkpt>
      <trkpt lat="49.24829" lon="0.15059">
        <ele>38.11</ele>
        <time>2021-03-23T15:12:16Z</time>
      </trkpt>
      <trkpt lat="49.24836" lon="0.15089">
        <ele>37.63</ele>
        <time>2021-03-23T15:12:36Z</time>
      </trkpt>
      <trkpt lat="49.24836" lon="0.1509">
        <ele>37.63</ele>
        <time>2021-03-23T15:12:37Z</time>
      </trkpt>
      <trkpt lat="49.24853" lon="0.15129">
        <ele>37.15</ele>
        <time>2021-03-23T15:12:54Z</time>
      </trkpt>
      <trkpt lat="49.24868" lon="0.15148">
        <ele>37.15</ele>
        <time>2021-03-23T15:13:13Z</time>
      </trkpt>
      <trkpt lat="49.24882" lon="0.15167">
        <ele>36.67</ele>
        <time>2021-03-23T15:13:34Z</time>
      </trkpt>
      <trkpt lat="49.24904" lon="0.15194">
        <ele>36.19</ele>
        <time>2021-03-23T15:13:55Z</time>
      </trkpt>
      <trkpt lat="49.2492" lon="0.15223">
        <ele>35.71</ele>
        <time>2021-03-23T15:14:18Z</time>
      </trkpt>
      <trkpt lat="49.24938" lon="0.15256">
        <ele>35.71</ele>
        <time>2021-03-23T15:14:42Z</time>
      </trkpt>
      <trkpt lat="49.24956" lon="0.15294">
        <ele>35.23</ele>
        <time>2021-03-23T15:15:07Z</time>
      </trkpt>
      <trkpt lat="49.24968" lon="0.15331">
        <ele>35.23</ele>
        <time>2021-03-23T15:15:29Z</time>
      </trkpt>
      <trkpt lat="49.24974" lon="0.15367">
        <ele>34.74</ele>
        <time>2021-03-23T15:15:50Z</time>
      </trkpt>
      <trkpt lat="49.2498" lon="0.15405">
        <ele>34.26</ele>
        <time>2021-03-23T15:16:13Z</time>
      </trkpt>
      <trkpt lat="49.24982" lon="0.15411">
        <ele>35.23</ele>
        <time>2021-03-23T15:16:17Z</time>
      </trkpt>
      <trkpt lat="49.2498" lon="0.15439">
        <ele>35.71</ele>
        <time>2021-03-23T15:16:35Z</time>
      </trkpt>
      <trkpt lat="49.24971" lon="0.1547">
        <ele>36.19</ele>
        <time>2021-03-23T15:16:55Z</time>
      </trkpt>
      <trkpt lat="49.24955" lon="0.15503">
        <ele>36.67</ele>
        <time>2021-03-23T15:17:19Z</time>
      </trkpt>
      <trkpt lat="49.24941" lon="0.15537">
        <ele>38.11</ele>
        <time>2021-03-23T15:17:40Z</time>
      </trkpt>
      <trkpt lat="49.24921" lon="0.15588">
        <ele>39.55</ele>
        <time>2021-03-23T15:18:09Z</time>
      </trkpt>
      <trkpt lat="49.2491" lon="0.15624">
        <ele>41.47</ele>
        <time>2021-03-23T15:18:33Z</time>
      </trkpt>
      <trkpt lat="49.24902" lon="0.15657">
        <ele>42.44</ele>
        <time>2021-03-23T15:18:57Z</time>
      </trkpt>
      <trkpt lat="49.24904" lon="0.15688">
        <ele>42.92</ele>
        <time>2021-03-23T15:19:14Z</time>
      </trkpt>
      <trkpt lat="49.24905" lon="0.15709">
        <ele>42.92</ele>
        <time>2021-03-23T15:19:31Z</time>
      </trkpt>
      <trkpt lat="49.24906" lon="0.15719">
        <ele>42.92</ele>
        <time>2021-03-23T15:19:37Z</time>
      </trkpt>
      <trkpt lat="49.24914" lon="0.15757">
        <ele>41.47</ele>
        <time>2021-03-23T15:19:57Z</time>
      </trkpt>
      <trkpt lat="49.24924" lon="0.1579">
        <ele>40.51</ele>
        <time>2021-03-23T15:20:17Z</time>
      </trkpt>
      <trkpt lat="49.24932" lon="0.15829">
        <ele>39.55</ele>
        <time>2021-03-23T15:20:39Z</time>
      </trkpt>
      <trkpt lat="49.24936" lon="0.15858">
        <ele>38.11</ele>
        <time>2021-03-23T15:20:56Z</time>
      </trkpt>
      <trkpt lat="49.24939" lon="0.15888">
        <ele>36.67</ele>
        <time>2021-03-23T15:21:14Z</time>
      </trkpt>
      <trkpt lat="49.2494" lon="0.15919">
        <ele>35.23</ele>
        <time>2021-03-23T15:21:30Z</time>
      </trkpt>
      <trkpt lat="49.24946" lon="0.15939">
        <ele>34.74</ele>
        <time>2021-03-23T15:21:48Z</time>
      </trkpt>
      <trkpt lat="49.24946" lon="0.15955">
        <ele>34.74</ele>
        <time>2021-03-23T15:22:06Z</time>
      </trkpt>
      <trkpt lat="49.24947" lon="0.1596">
        <ele>33.78</ele>
        <time>2021-03-23T15:22:09Z</time>
      </trkpt>
      <trkpt lat="49.2496" lon="0.15991">
        <ele>32.34</ele>
        <time>2021-03-23T15:22:29Z</time>
      </trkpt>
      <trkpt lat="49.24971" lon="0.16018">
        <ele>32.34</ele>
        <time>2021-03-23T15:22:46Z</time>
      </trkpt>
      <trkpt lat="49.2498" lon="0.16048">
        <ele>31.86</ele>
        <time>2021-03-23T15:23:04Z</time>
      </trkpt>
      <trkpt lat="49.24982" lon="0.16087">
        <ele>31.86</ele>
        <time>2021-03-23T15:23:24Z</time>
      </trkpt>
      <trkpt lat="49.24983" lon="0.16118">
        <ele>31.86</ele>
        <time>2021-03-23T15:23:41Z</time>
      </trkpt>
      <trkpt lat="49.24988" lon="0.16122">
        <ele>33.3</ele>
        <time>2021-03-23T15:23:46Z</time>
      </trkpt>
      <trkpt lat="49.25012" lon="0.16117">
        <ele>33.3</ele>
        <time>2021-03-23T15:24:07Z</time>
      </trkpt>
      <trkpt lat="49.25012" lon="0.16116">
        <ele>31.86</ele>
        <time>2021-03-23T15:24:11Z</time>
      </trkpt>
      <trkpt lat="49.25027" lon="0.16116">
        <ele>31.86</ele>
        <time>2021-03-23T15:24:27Z</time>
      </trkpt>
      <trkpt lat="49.25046" lon="0.16114">
        <ele>31.86</ele>
        <time>2021-03-23T15:24:48Z</time>
      </trkpt>
      <trkpt lat="49.25063" lon="0.16113">
        <ele>30.9</ele>
        <time>2021-03-23T15:25:03Z</time>
      </trkpt>
      <trkpt lat="49.25084" lon="0.16109">
        <ele>30.42</ele>
        <time>2021-03-23T15:25:22Z</time>
      </trkpt>
      <trkpt lat="49.25106" lon="0.16106">
        <ele>29.94</ele>
        <time>2021-03-23T15:25:39Z</time>
      </trkpt>
      <trkpt lat="49.25126" lon="0.16102">
        <ele>29.94</ele>
        <time>2021-03-23T15:25:55Z</time>
      </trkpt>
      <trkpt lat="49.25151" lon="0.161">
        <ele>29.94</ele>
        <time>2021-03-23T15:26:14Z</time>
      </trkpt>
      <trkpt lat="49.25172" lon="0.16099">
        <ele>29.94</ele>
        <time>2021-03-23T15:26:32Z</time>
      </trkpt>
      <trkpt lat="49.25194" lon="0.16106">
        <ele>31.38</ele>
        <time>2021-03-23T15:26:50Z</time>
      </trkpt>
      <trkpt lat="49.25203" lon="0.1611">
        <ele>32.34</ele>
        <time>2021-03-23T15:27:04Z</time>
      </trkpt>
      <trkpt lat="49.25218" lon="0.16121">
        <ele>32.34</ele>
        <time>2021-03-23T15:27:22Z</time>
      </trkpt>
      <trkpt lat="49.25235" lon="0.1614">
        <ele>33.3</ele>
        <time>2021-03-23T15:27:40Z</time>
      </trkpt>
      <trkpt lat="49.25242" lon="0.16149">
        <ele>33.78</ele>
        <time>2021-03-23T15:27:57Z</time>
      </trkpt>
      <trkpt lat="49.25252" lon="0.16161">
        <ele>33.78</ele>
        <time>2021-03-23T15:28:11Z</time>
      </trkpt>
      <trkpt lat="49.25272" lon="0.16193">
        <ele>34.26</ele>
        <time>2021-03-23T15:28:34Z</time>
      </trkpt>
      <trkpt lat="49.25291" lon="0.16222">
        <ele>34.26</ele>
        <time>2021-03-23T15:28:56Z</time>
      </trkpt>
      <trkpt lat="49.25301" lon="0.16237">
        <ele>33.3</ele>
        <time>2021-03-23T15:29:11Z</time>
      </trkpt>
      <trkpt lat="49.25317" lon="0.16263">
        <ele>33.3</ele>
        <time>2021-03-23T15:29:32Z</time>
      </trkpt>
      <trkpt lat="49.25332" lon="0.16285">
        <ele>32.82</ele>
        <time>2021-03-23T15:29:53Z</time>
      </trkpt>
      <trkpt lat="49.25343" lon="0.16304">
        <ele>32.82</ele>
        <time>2021-03-23T15:30:08Z</time>
      </trkpt>
      <trkpt lat="49.25363" lon="0.16332">
        <ele>32.82</ele>
        <time>2021-03-23T15:30:30Z</time>
      </trkpt>
      <trkpt lat="49.25378" lon="0.16356">
        <ele>32.34</ele>
        <time>2021-03-23T15:30:49Z</time>
      </trkpt>
      <trkpt lat="49.25399" lon="0.16387">
        <ele>32.34</ele>
        <time>2021-03-23T15:31:12Z</time>
      </trkpt>
      <trkpt lat="49.25418" lon="0.16415">
        <ele>32.82</ele>
        <time>2021-03-23T15:31:35Z</time>
      </trkpt>
      <trkpt lat="49.25433" lon="0.16442">
        <ele>32.82</ele>
        <time>2021-03-23T15:31:55Z</time>
      </trkpt>
      <trkpt lat="49.2543" lon="0.16451">
        <ele>33.78</ele>
        <time>2021-03-23T15:32:01Z</time>
      </trkpt>
      <trkpt lat="49.25418" lon="0.16483">
        <ele>36.19</ele>
        <time>2021-03-23T15:32:21Z</time>
      </trkpt>
      <trkpt lat="49.25408" lon="0.16506">
        <ele>38.11</ele>
        <time>2021-03-23T15:32:38Z</time>
      </trkpt>
      <trkpt lat="49.254" lon="0.16529">
        <ele>39.55</ele>
        <time>2021-03-23T15:32:55Z</time>
      </trkpt>
      <trkpt lat="49.25395" lon="0.16548">
        <ele>40.99</ele>
        <time>2021-03-23T15:33:09Z</time>
      </trkpt>
      <trkpt lat="49.2539" lon="0.16569">
        <ele>43.4</ele>
        <time>2021-03-23T15:33:25Z</time>
      </trkpt>
      <trkpt lat="49.25386" lon="0.16593">
        <ele>44.84</ele>
        <time>2021-03-23T15:33:43Z</time>
      </trkpt>
      <trkpt lat="49.25383" lon="0.16619">
        <ele>47.24</ele>
        <time>2021-03-23T15:34:00Z</time>
      </trkpt>
      <trkpt lat="49.25379" lon="0.1665">
        <ele>49.16</ele>
        <time>2021-03-23T15:34:17Z</time>
      </trkpt>
      <trkpt lat="49.25376" lon="0.16673">
        <ele>50.13</ele>
        <time>2021-03-23T15:34:34Z</time>
      </trkpt>
      <trkpt lat="49.25372" lon="0.16699">
        <ele>51.57</ele>
        <time>2021-03-23T15:34:51Z</time>
      </trkpt>
      <trkpt lat="49.25368" lon="0.16724">
        <ele>53.49</ele>
        <time>2021-03-23T15:35:06Z</time>
      </trkpt>
      <trkpt lat="49.25362" lon="0.1675">
        <ele>55.41</ele>
        <time>2021-03-23T15:35:24Z</time>
      </trkpt>
      <trkpt lat="49.25356" lon="0.16774">
        <ele>57.34</ele>
        <time>2021-03-23T15:35:42Z</time>
      </trkpt>
      <trkpt lat="49.25352" lon="0.16795">
        <ele>59.26</ele>
        <time>2021-03-23T15:35:57Z</time>
      </trkpt>
      <trkpt lat="49.25346" lon="0.16823">
        <ele>61.66</ele>
        <time>2021-03-23T15:36:16Z</time>
      </trkpt>
      <trkpt lat="49.2534" lon="0.16858">
        <ele>64.07</ele>
        <time>2021-03-23T15:36:37Z</time>
      </trkpt>
      <trkpt lat="49.25335" lon="0.16881">
        <ele>65.03</ele>
        <time>2021-03-23T15:36:53Z</time>
      </trkpt>
      <trkpt lat="49.2533" lon="0.16906">
        <ele>66.47</ele>
        <time>2021-03-23T15:37:09Z</time>
      </trkpt>
      <trkpt lat="49.25324" lon="0.16929">
        <ele>68.87</ele>
        <time>2021-03-23T15:37:26Z</time>
      </trkpt>
      <trkpt lat="49.25318" lon="0.16955">
        <ele>70.31</ele>
        <time>2021-03-23T15:37:42Z</time>
      </trkpt>
      <trkpt lat="49.25309" lon="0.16984">
        <ele>73.2</ele>
        <time>2021-03-23T15:38:01Z</time>
      </trkpt>
      <trkpt lat="49.25298" lon="0.17">
        <ele>74.64</ele>
        <time>2021-03-23T15:38:17Z</time>
      </trkpt>
      <trkpt lat="49.25282" lon="0.17006">
        <ele>77.52</ele>
        <time>2021-03-23T15:38:36Z</time>
      </trkpt>
      <trkpt lat="49.25265" lon="0.17014">
        <ele>79.93</ele>
        <time>2021-03-23T15:38:53Z</time>
      </trkpt>
      <trkpt lat="49.25248" lon="0.17022">
        <ele>81.85</ele>
        <time>2021-03-23T15:39:11Z</time>
      </trkpt>
      <trkpt lat="49.25231" lon="0.17029">
        <ele>84.25</ele>
        <time>2021-03-23T15:39:30Z</time>
      </trkpt>
      <trkpt lat="49.25215" lon="0.17034">
        <ele>84.73</ele>
        <time>2021-03-23T15:39:45Z</time>
      </trkpt>
      <trkpt lat="49.252" lon="0.17033">
        <ele>86.18</ele>
        <time>2021-03-23T15:40:00Z</time>
      </trkpt>
      <trkpt lat="49.25188" lon="0.17029">
        <ele>87.62</ele>
        <time>2021-03-23T15:40:13Z</time>
      </trkpt>
      <trkpt lat="49.25169" lon="0.17019">
        <ele>87.62</ele>
        <time>2021-03-23T15:40:30Z</time>
      </trkpt>
      <trkpt lat="49.25152" lon="0.17012">
        <ele>89.54</ele>
        <time>2021-03-23T15:40:47Z</time>
      </trkpt>
      <trkpt lat="49.25135" lon="0.17007">
        <ele>90.5</ele>
        <time>2021-03-23T15:41:03Z</time>
      </trkpt>
      <trkpt lat="49.25118" lon="0.16998">
        <ele>90.98</ele>
        <time>2021-03-23T15:41:18Z</time>
      </trkpt>
      <trkpt lat="49.25098" lon="0.16989">
        <ele>91.94</ele>
        <time>2021-03-23T15:41:35Z</time>
      </trkpt>
      <trkpt lat="49.2508" lon="0.16989">
        <ele>92.42</ele>
        <time>2021-03-23T15:41:50Z</time>
      </trkpt>
      <trkpt lat="49.25064" lon="0.16984">
        <ele>92.42</ele>
        <time>2021-03-23T15:42:01Z</time>
      </trkpt>
      <trkpt lat="49.2504" lon="0.16987">
        <ele>93.39</ele>
        <time>2021-03-23T15:42:19Z</time>
      </trkpt>
      <trkpt lat="49.2501" lon="0.1698">
        <ele>93.87</ele>
        <time>2021-03-23T15:42:41Z</time>
      </trkpt>
      <trkpt lat="49.2498" lon="0.16969">
        <ele>94.35</ele>
        <time>2021-03-23T15:43:03Z</time>
      </trkpt>
      <trkpt lat="49.24953" lon="0.16965">
        <ele>94.83</ele>
        <time>2021-03-23T15:43:25Z</time>
      </trkpt>
      <trkpt lat="49.24926" lon="0.16961">
        <ele>95.31</ele>
        <time>2021-03-23T15:43:47Z</time>
      </trkpt>
      <trkpt lat="49.24898" lon="0.16961">
        <ele>96.27</ele>
        <time>2021-03-23T15:44:10Z</time>
      </trkpt>
      <trkpt lat="49.24873" lon="0.16964">
        <ele>96.27</ele>
        <time>2021-03-23T15:44:30Z</time>
      </trkpt>
      <trkpt lat="49.24849" lon="0.16967">
        <ele>97.23</ele>
        <time>2021-03-23T15:44:51Z</time>
      </trkpt>
      <trkpt lat="49.24831" lon="0.1697">
        <ele>97.23</ele>
        <time>2021-03-23T15:45:09Z</time>
      </trkpt>
      <trkpt lat="49.24823" lon="0.16976">
        <ele>97.23</ele>
        <time>2021-03-23T15:45:21Z</time>
      </trkpt>
      <trkpt lat="49.24798" lon="0.16972">
        <ele>97.71</ele>
        <time>2021-03-23T15:45:39Z</time>
      </trkpt>
      <trkpt lat="49.24775" lon="0.16977">
        <ele>98.19</ele>
        <time>2021-03-23T15:45:58Z</time>
      </trkpt>
      <trkpt lat="49.24754" lon="0.16986">
        <ele>98.67</ele>
        <time>2021-03-23T15:46:18Z</time>
      </trkpt>
      <trkpt lat="49.24753" lon="0.16989">
        <ele>98.67</ele>
        <time>2021-03-23T15:46:20Z</time>
      </trkpt>
      <trkpt lat="49.24745" lon="0.17018">
        <ele>98.67</ele>
        <time>2021-03-23T15:46:39Z</time>
      </trkpt>
      <trkpt lat="49.24739" lon="0.1704">
        <ele>99.63</ele>
        <time>2021-03-23T15:46:53Z</time>
      </trkpt>
      <trkpt lat="49.24732" lon="0.17061">
        <ele>100.11</ele>
        <time>2021-03-23T15:47:08Z</time>
      </trkpt>
      <trkpt lat="49.24728" lon="0.17081">
        <ele>100.6</ele>
        <time>2021-03-23T15:47:21Z</time>
      </trkpt>
      <trkpt lat="49.24725" lon="0.17088">
        <ele>100.6</ele>
        <time>2021-03-23T15:47:25Z</time>
      </trkpt>
      <trkpt lat="49.24715" lon="0.17124">
        <ele>101.08</ele>
        <time>2021-03-23T15:47:46Z</time>
      </trkpt>
      <trkpt lat="49.24702" lon="0.17154">
        <ele>102.04</ele>
        <time>2021-03-23T15:48:04Z</time>
      </trkpt>
      <trkpt lat="49.24691" lon="0.1719">
        <ele>103</ele>
        <time>2021-03-23T15:48:25Z</time>
      </trkpt>
      <trkpt lat="49.2469" lon="0.17197">
        <ele>103</ele>
        <time>2021-03-23T15:48:29Z</time>
      </trkpt>
      <trkpt lat="49.24683" lon="0.17231">
        <ele>103</ele>
        <time>2021-03-23T15:48:48Z</time>
      </trkpt>
      <trkpt lat="49.24681" lon="0.17259">
        <ele>103.48</ele>
        <time>2021-03-23T15:49:04Z</time>
      </trkpt>
      <trkpt lat="49.24681" lon="0.17298">
        <ele>103.48</ele>
        <time>2021-03-23T15:49:24Z</time>
      </trkpt>
      <trkpt lat="49.24681" lon="0.17327">
        <ele>103.48</ele>
        <time>2021-03-23T15:49:39Z</time>
      </trkpt>
      <trkpt lat="49.24681" lon="0.1736">
        <ele>103.96</ele>
        <time>2021-03-23T15:49:57Z</time>
      </trkpt>
      <trkpt lat="49.24681" lon="0.17387">
        <ele>104.44</ele>
        <time>2021-03-23T15:50:11Z</time>
      </trkpt>
      <trkpt lat="49.24679" lon="0.17423">
        <ele>104.44</ele>
        <time>2021-03-23T15:50:29Z</time>
      </trkpt>
      <trkpt lat="49.24676" lon="0.1747">
        <ele>104.92</ele>
        <time>2021-03-23T15:50:52Z</time>
      </trkpt>
      <trkpt lat="49.2467" lon="0.17511">
        <ele>104.92</ele>
        <time>2021-03-23T15:51:12Z</time>
      </trkpt>
      <trkpt lat="49.24659" lon="0.17547">
        <ele>105.4</ele>
        <time>2021-03-23T15:51:34Z</time>
      </trkpt>
      <trkpt lat="49.24649" lon="0.17583">
        <ele>105.88</ele>
        <time>2021-03-23T15:51:56Z</time>
      </trkpt>
      <trkpt lat="49.2464" lon="0.17612">
        <ele>105.88</ele>
        <time>2021-03-23T15:52:14Z</time>
      </trkpt>
      <trkpt lat="49.24629" lon="0.17644">
        <ele>106.84</ele>
        <time>2021-03-23T15:52:32Z</time>
      </trkpt>
      <trkpt lat="49.24617" lon="0.17678">
        <ele>107.32</ele>
        <time>2021-03-23T15:52:52Z</time>
      </trkpt>
      <trkpt lat="49.24604" lon="0.17716">
        <ele>107.81</ele>
        <time>2021-03-23T15:53:15Z</time>
      </trkpt>
      <trkpt lat="49.24592" lon="0.17747">
        <ele>108.29</ele>
        <time>2021-03-23T15:53:35Z</time>
      </trkpt>
      <trkpt lat="49.24582" lon="0.17776">
        <ele>108.77</ele>
        <time>2021-03-23T15:53:53Z</time>
      </trkpt>
      <trkpt lat="49.24568" lon="0.17808">
        <ele>109.25</ele>
        <time>2021-03-23T15:54:14Z</time>
      </trkpt>
      <trkpt lat="49.24554" lon="0.17837">
        <ele>109.73</ele>
        <time>2021-03-23T15:54:35Z</time>
      </trkpt>
      <trkpt lat="49.24543" lon="0.17865">
        <ele>109.73</ele>
        <time>2021-03-23T15:54:53Z</time>
      </trkpt>
      <trkpt lat="49.24535" lon="0.17899">
        <ele>110.69</ele>
        <time>2021-03-23T15:55:13Z</time>
      </trkpt>
      <trkpt lat="49.24531" lon="0.17923">
        <ele>111.17</ele>
        <time>2021-03-23T15:55:29Z</time>
      </trkpt>
      <trkpt lat="49.24526" lon="0.17942">
        <ele>111.17</ele>
        <time>2021-03-23T15:55:44Z</time>
      </trkpt>
      <trkpt lat="49.24523" lon="0.17964">
        <ele>111.65</ele>
        <time>2021-03-23T15:55:57Z</time>
      </trkpt>
      <trkpt lat="49.24516" lon="0.17987">
        <ele>111.65</ele>
        <time>2021-03-23T15:56:12Z</time>
      </trkpt>
      <trkpt lat="49.24507" lon="0.18015">
        <ele>112.61</ele>
        <time>2021-03-23T15:56:28Z</time>
      </trkpt>
      <trkpt lat="49.24502" lon="0.18039">
        <ele>112.61</ele>
        <time>2021-03-23T15:56:42Z</time>
      </trkpt>
      <trkpt lat="49.24491" lon="0.18068">
        <ele>113.09</ele>
        <time>2021-03-23T15:56:58Z</time>
      </trkpt>
      <trkpt lat="49.24485" lon="0.18089">
        <ele>113.09</ele>
        <time>2021-03-23T15:57:11Z</time>
      </trkpt>
      <trkpt lat="49.24478" lon="0.18114">
        <ele>113.09</ele>
        <time>2021-03-23T15:57:27Z</time>
      </trkpt>
      <trkpt lat="49.24465" lon="0.18142">
        <ele>113.57</ele>
        <time>2021-03-23T15:57:43Z</time>
      </trkpt>
      <trkpt lat="49.24451" lon="0.18169">
        <ele>113.57</ele>
        <time>2021-03-23T15:57:59Z</time>
      </trkpt>
      <trkpt lat="49.24437" lon="0.18196">
        <ele>114.05</ele>
        <time>2021-03-23T15:58:17Z</time>
      </trkpt>
      <trkpt lat="49.24428" lon="0.18218">
        <ele>114.05</ele>
        <time>2021-03-23T15:58:33Z</time>
      </trkpt>
      <trkpt lat="49.24418" lon="0.18238">
        <ele>114.05</ele>
        <time>2021-03-23T15:58:48Z</time>
      </trkpt>
      <trkpt lat="49.24406" lon="0.18262">
        <ele>114.05</ele>
        <time>2021-03-23T15:59:02Z</time>
      </trkpt>
      <trkpt lat="49.24395" lon="0.18285">
        <ele>114.05</ele>
        <time>2021-03-23T15:59:18Z</time>
      </trkpt>
      <trkpt lat="49.24384" lon="0.18308">
        <ele>112.13</ele>
        <time>2021-03-23T15:59:33Z</time>
      </trkpt>
      <trkpt lat="49.24371" lon="0.18342">
        <ele>112.13</ele>
        <time>2021-03-23T15:59:50Z</time>
      </trkpt>
      <trkpt lat="49.24366" lon="0.18366">
        <ele>111.65</ele>
        <time>2021-03-23T16:00:04Z</time>
      </trkpt>
      <trkpt lat="49.24372" lon="0.18388">
        <ele>111.17</ele>
        <time>2021-03-23T16:00:20Z</time>
      </trkpt>
      <trkpt lat="49.24376" lon="0.18394">
        <ele>111.17</ele>
        <time>2021-03-23T16:00:26Z</time>
      </trkpt>
      <trkpt lat="49.24388" lon="0.18402">
        <ele>110.69</ele>
        <time>2021-03-23T16:00:40Z</time>
      </trkpt>
      <trkpt lat="49.24401" lon="0.1841">
        <ele>110.21</ele>
        <time>2021-03-23T16:00:54Z</time>
      </trkpt>
      <trkpt lat="49.24416" lon="0.18423">
        <ele>110.21</ele>
        <time>2021-03-23T16:01:09Z</time>
      </trkpt>
      <trkpt lat="49.24429" lon="0.18435">
        <ele>110.21</ele>
        <time>2021-03-23T16:01:23Z</time>
      </trkpt>
      <trkpt lat="49.24447" lon="0.18454">
        <ele>109.73</ele>
        <time>2021-03-23T16:01:41Z</time>
      </trkpt>
      <trkpt lat="49.24463" lon="0.18477">
        <ele>109.73</ele>
        <time>2021-03-23T16:01:59Z</time>
      </trkpt>
      <trkpt lat="49.24473" lon="0.18497">
        <ele>109.25</ele>
        <time>2021-03-23T16:02:12Z</time>
      </trkpt>
      <trkpt lat="49.24481" lon="0.1853">
        <ele>109.25</ele>
        <time>2021-03-23T16:02:29Z</time>
      </trkpt>
      <trkpt lat="49.24489" lon="0.18555">
        <ele>109.25</ele>
        <time>2021-03-23T16:02:45Z</time>
      </trkpt>
      <trkpt lat="49.24497" lon="0.18573">
        <ele>109.25</ele>
        <time>2021-03-23T16:02:58Z</time>
      </trkpt>
      <trkpt lat="49.24508" lon="0.18591">
        <ele>109.25</ele>
        <time>2021-03-23T16:03:12Z</time>
      </trkpt>
      <trkpt lat="49.24523" lon="0.18606">
        <ele>109.25</ele>
        <time>2021-03-23T16:03:28Z</time>
      </trkpt>
      <trkpt lat="49.24539" lon="0.18618">
        <ele>108.77</ele>
        <time>2021-03-23T16:03:41Z</time>
      </trkpt>
      <trkpt lat="49.24556" lon="0.18625">
        <ele>108.29</ele>
        <time>2021-03-23T16:03:56Z</time>
      </trkpt>
      <trkpt lat="49.24566" lon="0.1863">
        <ele>108.29</ele>
        <time>2021-03-23T16:04:10Z</time>
      </trkpt>
      <trkpt lat="49.24589" lon="0.18638">
        <ele>108.29</ele>
        <time>2021-03-23T16:04:28Z</time>
      </trkpt>
      <trkpt lat="49.24606" lon="0.18643">
        <ele>107.81</ele>
        <time>2021-03-23T16:04:46Z</time>
      </trkpt>
      <trkpt lat="49.24625" lon="0.18645">
        <ele>107.81</ele>
        <time>2021-03-23T16:05:05Z</time>
      </trkpt>
      <trkpt lat="49.24644" lon="0.18651">
        <ele>107.81</ele>
        <time>2021-03-23T16:05:22Z</time>
      </trkpt>
      <trkpt lat="49.24665" lon="0.18656">
        <ele>107.32</ele>
        <time>2021-03-23T16:05:39Z</time>
      </trkpt>
      <trkpt lat="49.24692" lon="0.1866">
        <ele>107.32</ele>
        <time>2021-03-23T16:05:57Z</time>
      </trkpt>
      <trkpt lat="49.24705" lon="0.1866">
        <ele>106.84</ele>
        <time>2021-03-23T16:06:12Z</time>
      </trkpt>
      <trkpt lat="49.24722" lon="0.18661">
        <ele>106.36</ele>
        <time>2021-03-23T16:06:27Z</time>
      </trkpt>
      <trkpt lat="49.24728" lon="0.18661">
        <ele>106.36</ele>
        <time>2021-03-23T16:06:32Z</time>
      </trkpt>
      <trkpt lat="49.24743" lon="0.18659">
        <ele>106.36</ele>
        <time>2021-03-23T16:06:46Z</time>
      </trkpt>
      <trkpt lat="49.2476" lon="0.18658">
        <ele>106.36</ele>
        <time>2021-03-23T16:07:01Z</time>
      </trkpt>
      <trkpt lat="49.24776" lon="0.18658">
        <ele>106.36</ele>
        <time>2021-03-23T16:07:15Z</time>
      </trkpt>
      <trkpt lat="49.24781" lon="0.18657">
        <ele>106.36</ele>
        <time>2021-03-23T16:07:18Z</time>
      </trkpt>
      <trkpt lat="49.24807" lon="0.1865">
        <ele>106.36</ele>
        <time>2021-03-23T16:07:36Z</time>
      </trkpt>
      <trkpt lat="49.24815" lon="0.18648">
        <ele>106.36</ele>
        <time>2021-03-23T16:07:43Z</time>
      </trkpt>
      <trkpt lat="49.24831" lon="0.18644">
        <ele>105.88</ele>
        <time>2021-03-23T16:08:00Z</time>
      </trkpt>
      <trkpt lat="49.2486" lon="0.18645">
        <ele>105.88</ele>
        <time>2021-03-23T16:08:16Z</time>
      </trkpt>
      <trkpt lat="49.24883" lon="0.18651">
        <ele>105.88</ele>
        <time>2021-03-23T16:08:32Z</time>
      </trkpt>
      <trkpt lat="49.24906" lon="0.18648">
        <ele>105.88</ele>
        <time>2021-03-23T16:08:52Z</time>
      </trkpt>
      <trkpt lat="49.24924" lon="0.18652">
        <ele>105.88</ele>
        <time>2021-03-23T16:09:07Z</time>
      </trkpt>
      <trkpt lat="49.24954" lon="0.18655">
        <ele>105.4</ele>
        <time>2021-03-23T16:09:25Z</time>
      </trkpt>
      <trkpt lat="49.24974" lon="0.18653">
        <ele>104.92</ele>
        <time>2021-03-23T16:09:46Z</time>
      </trkpt>
      <trkpt lat="49.24977" lon="0.18652">
        <ele>105.88</ele>
        <time>2021-03-23T16:09:50Z</time>
      </trkpt>
      <trkpt lat="49.2498" lon="0.18652">
        <ele>104.92</ele>
        <time>2021-03-23T16:09:53Z</time>
      </trkpt>
      <trkpt lat="49.25007" lon="0.18653">
        <ele>103</ele>
        <time>2021-03-23T16:10:14Z</time>
      </trkpt>
      <trkpt lat="49.25024" lon="0.18649">
        <ele>102.04</ele>
        <time>2021-03-23T16:10:30Z</time>
      </trkpt>
      <trkpt lat="49.25044" lon="0.18644">
        <ele>101.08</ele>
        <time>2021-03-23T16:10:48Z</time>
      </trkpt>
      <trkpt lat="49.25064" lon="0.18641">
        <ele>100.6</ele>
        <time>2021-03-23T16:11:05Z</time>
      </trkpt>
      <trkpt lat="49.25085" lon="0.18634">
        <ele>100.6</ele>
        <time>2021-03-23T16:11:21Z</time>
      </trkpt>
      <trkpt lat="49.25101" lon="0.18628">
        <ele>102.04</ele>
        <time>2021-03-23T16:11:34Z</time>
      </trkpt>
      <trkpt lat="49.25118" lon="0.18617">
        <ele>103.48</ele>
        <time>2021-03-23T16:11:50Z</time>
      </trkpt>
      <trkpt lat="49.25119" lon="0.18615">
        <ele>103.48</ele>
        <time>2021-03-23T16:11:51Z</time>
      </trkpt>
      <trkpt lat="49.25144" lon="0.18596">
        <ele>104.44</ele>
        <time>2021-03-23T16:12:12Z</time>
      </trkpt>
      <trkpt lat="49.25166" lon="0.18574">
        <ele>104.92</ele>
        <time>2021-03-23T16:12:33Z</time>
      </trkpt>
      <trkpt lat="49.25192" lon="0.1855">
        <ele>105.4</ele>
        <time>2021-03-23T16:12:56Z</time>
      </trkpt>
      <trkpt lat="49.25217" lon="0.18527">
        <ele>105.88</ele>
        <time>2021-03-23T16:13:18Z</time>
      </trkpt>
      <trkpt lat="49.25237" lon="0.18505">
        <ele>105.88</ele>
        <time>2021-03-23T16:13:38Z</time>
      </trkpt>
      <trkpt lat="49.25253" lon="0.18485">
        <ele>105.88</ele>
        <time>2021-03-23T16:13:57Z</time>
      </trkpt>
      <trkpt lat="49.25271" lon="0.18465">
        <ele>106.36</ele>
        <time>2021-03-23T16:14:17Z</time>
      </trkpt>
      <trkpt lat="49.25285" lon="0.18445">
        <ele>106.36</ele>
        <time>2021-03-23T16:14:33Z</time>
      </trkpt>
      <trkpt lat="49.25302" lon="0.18414">
        <ele>106.36</ele>
        <time>2021-03-23T16:14:53Z</time>
      </trkpt>
      <trkpt lat="49.25321" lon="0.18384">
        <ele>106.36</ele>
        <time>2021-03-23T16:15:15Z</time>
      </trkpt>
      <trkpt lat="49.25322" lon="0.18378">
        <ele>106.36</ele>
        <time>2021-03-23T16:15:18Z</time>
      </trkpt>
      <trkpt lat="49.25329" lon="0.18342">
        <ele>106.36</ele>
        <time>2021-03-23T16:15:37Z</time>
      </trkpt>
      <trkpt lat="49.25338" lon="0.18309">
        <ele>105.4</ele>
        <time>2021-03-23T16:15:57Z</time>
      </trkpt>
      <trkpt lat="49.25345" lon="0.18276">
        <ele>105.4</ele>
        <time>2021-03-23T16:16:15Z</time>
      </trkpt>
      <trkpt lat="49.25352" lon="0.18249">
        <ele>105.4</ele>
        <time>2021-03-23T16:16:30Z</time>
      </trkpt>
      <trkpt lat="49.25363" lon="0.18218">
        <ele>104.92</ele>
        <time>2021-03-23T16:16:47Z</time>
      </trkpt>
      <trkpt lat="49.25372" lon="0.18198">
        <ele>104.92</ele>
        <time>2021-03-23T16:17:02Z</time>
      </trkpt>
      <trkpt lat="49.25374" lon="0.18189">
        <ele>104.92</ele>
        <time>2021-03-23T16:17:20Z</time>
      </trkpt>
      <trkpt lat="49.25396" lon="0.18203">
        <ele>104.92</ele>
        <time>2021-03-23T16:17:39Z</time>
      </trkpt>
      <trkpt lat="49.2542" lon="0.18227">
        <ele>106.36</ele>
        <time>2021-03-23T16:18:00Z</time>
      </trkpt>
      <trkpt lat="49.25445" lon="0.18251">
        <ele>106.84</ele>
        <time>2021-03-23T16:18:23Z</time>
      </trkpt>
      <trkpt lat="49.25467" lon="0.18273">
        <ele>107.32</ele>
        <time>2021-03-23T16:18:46Z</time>
      </trkpt>
      <trkpt lat="49.25489" lon="0.18291">
        <ele>107.81</ele>
        <time>2021-03-23T16:19:08Z</time>
      </trkpt>
      <trkpt lat="49.2549" lon="0.18292">
        <ele>107.81</ele>
        <time>2021-03-23T16:19:10Z</time>
      </trkpt>
      <trkpt lat="49.25512" lon="0.18318">
        <ele>107.81</ele>
        <time>2021-03-23T16:19:33Z</time>
      </trkpt>
      <trkpt lat="49.25535" lon="0.18343">
        <ele>108.29</ele>
        <time>2021-03-23T16:19:55Z</time>
      </trkpt>
      <trkpt lat="49.25556" lon="0.18365">
        <ele>109.25</ele>
        <time>2021-03-23T16:20:16Z</time>
      </trkpt>
      <trkpt lat="49.25578" lon="0.18391">
        <ele>109.25</ele>
        <time>2021-03-23T16:20:38Z</time>
      </trkpt>
      <trkpt lat="49.25587" lon="0.18401">
        <ele>109.25</ele>
        <time>2021-03-23T16:20:49Z</time>
      </trkpt>
      <trkpt lat="49.25605" lon="0.18424">
        <ele>109.25</ele>
        <time>2021-03-23T16:21:06Z</time>
      </trkpt>
      <trkpt lat="49.25623" lon="0.18452">
        <ele>109.25</ele>
        <time>2021-03-23T16:21:26Z</time>
      </trkpt>
      <trkpt lat="49.25637" lon="0.18473">
        <ele>109.73</ele>
        <time>2021-03-23T16:21:42Z</time>
      </trkpt>
      <trkpt lat="49.25654" lon="0.18501">
        <ele>109.73</ele>
        <time>2021-03-23T16:22:01Z</time>
      </trkpt>
      <trkpt lat="49.25674" lon="0.18529">
        <ele>109.73</ele>
        <time>2021-03-23T16:22:22Z</time>
      </trkpt>
      <trkpt lat="49.25688" lon="0.18553">
        <ele>110.21</ele>
        <time>2021-03-23T16:22:40Z</time>
      </trkpt>
      <trkpt lat="49.25707" lon="0.1858">
        <ele>110.21</ele>
        <time>2021-03-23T16:23:01Z</time>
      </trkpt>
      <trkpt lat="49.25719" lon="0.18615">
        <ele>110.21</ele>
        <time>2021-03-23T16:23:19Z</time>
      </trkpt>
      <trkpt lat="49.25724" lon="0.1866">
        <ele>111.17</ele>
        <time>2021-03-23T16:23:42Z</time>
      </trkpt>
      <trkpt lat="49.25727" lon="0.18706">
        <ele>111.17</ele>
        <time>2021-03-23T16:24:05Z</time>
      </trkpt>
      <trkpt lat="49.25733" lon="0.18745">
        <ele>111.17</ele>
        <time>2021-03-23T16:24:28Z</time>
      </trkpt>
      <trkpt lat="49.2574" lon="0.18776">
        <ele>111.17</ele>
        <time>2021-03-23T16:24:47Z</time>
      </trkpt>
      <trkpt lat="49.25752" lon="0.18816">
        <ele>111.17</ele>
        <time>2021-03-23T16:25:09Z</time>
      </trkpt>
      <trkpt lat="49.25764" lon="0.18854">
        <ele>111.17</ele>
        <time>2021-03-23T16:25:29Z</time>
      </trkpt>
      <trkpt lat="49.25776" lon="0.18887">
        <ele>111.17</ele>
        <time>2021-03-23T16:25:48Z</time>
      </trkpt>
      <trkpt lat="49.25789" lon="0.18927">
        <ele>111.17</ele>
        <time>2021-03-23T16:26:10Z</time>
      </trkpt>
      <trkpt lat="49.25798" lon="0.18963">
        <ele>111.17</ele>
        <time>2021-03-23T16:26:31Z</time>
      </trkpt>
      <trkpt lat="49.25804" lon="0.19004">
        <ele>111.17</ele>
        <time>2021-03-23T16:26:52Z</time>
      </trkpt>
      <trkpt lat="49.25808" lon="0.19034">
        <ele>111.17</ele>
        <time>2021-03-23T16:27:08Z</time>
      </trkpt>
      <trkpt lat="49.25812" lon="0.19077">
        <ele>111.17</ele>
        <time>2021-03-23T16:27:28Z</time>
      </trkpt>
      <trkpt lat="49.25809" lon="0.1911">
        <ele>110.21</ele>
        <time>2021-03-23T16:27:44Z</time>
      </trkpt>
      <trkpt lat="49.25807" lon="0.19128">
        <ele>109.25</ele>
        <time>2021-03-23T16:27:57Z</time>
      </trkpt>
      <trkpt lat="49.25806" lon="0.19137">
        <ele>109.25</ele>
        <time>2021-03-23T16:28:02Z</time>
      </trkpt>
      <trkpt lat="49.25801" lon="0.19168">
        <ele>109.73</ele>
        <time>2021-03-23T16:28:19Z</time>
      </trkpt>
      <trkpt lat="49.25797" lon="0.19198">
        <ele>109.73</ele>
        <time>2021-03-23T16:28:35Z</time>
      </trkpt>
      <trkpt lat="49.25794" lon="0.19227">
        <ele>109.25</ele>
        <time>2021-03-23T16:28:50Z</time>
      </trkpt>
      <trkpt lat="49.25793" lon="0.19258">
        <ele>108.29</ele>
        <time>2021-03-23T16:29:07Z</time>
      </trkpt>
      <trkpt lat="49.25795" lon="0.19298">
        <ele>107.32</ele>
        <time>2021-03-23T16:29:26Z</time>
      </trkpt>
      <trkpt lat="49.25796" lon="0.19324">
        <ele>105.88</ele>
        <time>2021-03-23T16:29:41Z</time>
      </trkpt>
      <trkpt lat="49.25796" lon="0.19356">
        <ele>103.96</ele>
        <time>2021-03-23T16:29:57Z</time>
      </trkpt>
      <trkpt lat="49.25797" lon="0.19392">
        <ele>102.04</ele>
        <time>2021-03-23T16:30:14Z</time>
      </trkpt>
      <trkpt lat="49.25798" lon="0.19426">
        <ele>100.6</ele>
        <time>2021-03-23T16:30:31Z</time>
      </trkpt>
      <trkpt lat="49.25797" lon="0.1946">
        <ele>98.67</ele>
        <time>2021-03-23T16:30:50Z</time>
      </trkpt>
      <trkpt lat="49.25797" lon="0.19481">
        <ele>97.71</ele>
        <time>2021-03-23T16:31:00Z</time>
      </trkpt>
      <trkpt lat="49.25797" lon="0.1952">
        <ele>96.27</ele>
        <time>2021-03-23T16:31:19Z</time>
      </trkpt>
      <trkpt lat="49.25793" lon="0.19562">
        <ele>94.83</ele>
        <time>2021-03-23T16:31:37Z</time>
      </trkpt>
      <trkpt lat="49.25797" lon="0.19591">
        <ele>93.87</ele>
        <time>2021-03-23T16:31:52Z</time>
      </trkpt>
      <trkpt lat="49.25794" lon="0.19624">
        <ele>93.87</ele>
        <time>2021-03-23T16:32:08Z</time>
      </trkpt>
      <trkpt lat="49.25799" lon="0.19651">
        <ele>93.87</ele>
        <time>2021-03-23T16:32:23Z</time>
      </trkpt>
      <trkpt lat="49.25805" lon="0.19677">
        <ele>93.39</ele>
        <time>2021-03-23T16:32:40Z</time>
      </trkpt>
      <trkpt lat="49.2581" lon="0.19709">
        <ele>92.9</ele>
        <time>2021-03-23T16:32:57Z</time>
      </trkpt>
      <trkpt lat="49.25815" lon="0.19743">
        <ele>90.98</ele>
        <time>2021-03-23T16:33:14Z</time>
      </trkpt>
      <trkpt lat="49.25823" lon="0.1976">
        <ele>89.06</ele>
        <time>2021-03-23T16:33:25Z</time>
      </trkpt>
      <trkpt lat="49.25836" lon="0.19783">
        <ele>86.18</ele>
        <time>2021-03-23T16:33:41Z</time>
      </trkpt>
      <trkpt lat="49.25839" lon="0.19789">
        <ele>86.18</ele>
        <time>2021-03-23T16:33:44Z</time>
      </trkpt>
      <trkpt lat="49.25846" lon="0.19804">
        <ele>84.25</ele>
        <time>2021-03-23T16:33:54Z</time>
      </trkpt>
      <trkpt lat="49.25864" lon="0.19827">
        <ele>81.37</ele>
        <time>2021-03-23T16:34:12Z</time>
      </trkpt>
      <trkpt lat="49.25881" lon="0.19837">
        <ele>79.93</ele>
        <time>2021-03-23T16:34:28Z</time>
      </trkpt>
      <trkpt lat="49.25906" lon="0.19846">
        <ele>79.93</ele>
        <time>2021-03-23T16:34:46Z</time>
      </trkpt>
      <trkpt lat="49.2592" lon="0.19853">
        <ele>79.93</ele>
        <time>2021-03-23T16:34:56Z</time>
      </trkpt>
      <trkpt lat="49.25924" lon="0.19857">
        <ele>79.45</ele>
        <time>2021-03-23T16:35:00Z</time>
      </trkpt>
      <trkpt lat="49.25944" lon="0.19874">
        <ele>78.48</ele>
        <time>2021-03-23T16:35:17Z</time>
      </trkpt>
      <trkpt lat="49.25959" lon="0.19892">
        <ele>76.56</ele>
        <time>2021-03-23T16:35:30Z</time>
      </trkpt>
      <trkpt lat="49.25984" lon="0.19923">
        <ele>74.64</ele>
        <time>2021-03-23T16:35:51Z</time>
      </trkpt>
      <trkpt lat="49.25987" lon="0.19923">
        <ele>74.64</ele>
        <time>2021-03-23T16:35:53Z</time>
      </trkpt>
      <trkpt lat="49.26009" lon="0.19932">
        <ele>73.2</ele>
        <time>2021-03-23T16:36:11Z</time>
      </trkpt>
      <trkpt lat="49.26017" lon="0.19936">
        <ele>71.76</ele>
        <time>2021-03-23T16:36:24Z</time>
      </trkpt>
      <trkpt lat="49.26022" lon="0.19942">
        <ele>70.79</ele>
        <time>2021-03-23T16:36:36Z</time>
      </trkpt>
      <trkpt lat="49.2604" lon="0.19958">
        <ele>68.87</ele>
        <time>2021-03-23T16:36:52Z</time>
      </trkpt>
      <trkpt lat="49.26063" lon="0.19972">
        <ele>66.95</ele>
        <time>2021-03-23T16:37:09Z</time>
      </trkpt>
      <trkpt lat="49.26086" lon="0.19984">
        <ele>65.03</ele>
        <time>2021-03-23T16:37:29Z</time>
      </trkpt>
      <trkpt lat="49.26109" lon="0.19998">
        <ele>63.1</ele>
        <time>2021-03-23T16:37:48Z</time>
      </trkpt>
      <trkpt lat="49.26133" lon="0.20009">
        <ele>62.62</ele>
        <time>2021-03-23T16:38:07Z</time>
      </trkpt>
      <trkpt lat="49.26152" lon="0.20011">
        <ele>61.66</ele>
        <time>2021-03-23T16:38:25Z</time>
      </trkpt>
      <trkpt lat="49.2617" lon="0.20019">
        <ele>60.22</ele>
        <time>2021-03-23T16:38:42Z</time>
      </trkpt>
      <trkpt lat="49.26175" lon="0.20054">
        <ele>58.78</ele>
        <time>2021-03-23T16:39:00Z</time>
      </trkpt>
      <trkpt lat="49.26177" lon="0.20091">
        <ele>58.3</ele>
        <time>2021-03-23T16:39:17Z</time>
      </trkpt>
      <trkpt lat="49.26177" lon="0.2011">
        <ele>58.3</ele>
        <time>2021-03-23T16:39:32Z</time>
      </trkpt>
      <trkpt lat="49.26176" lon="0.20118">
        <ele>58.3</ele>
        <time>2021-03-23T16:39:38Z</time>
      </trkpt>
      <trkpt lat="49.26178" lon="0.20122">
        <ele>58.3</ele>
        <time>2021-03-23T16:39:41Z</time>
      </trkpt>
      <trkpt lat="49.26203" lon="0.20124">
        <ele>57.82</ele>
        <time>2021-03-23T16:40:04Z</time>
      </trkpt>
      <trkpt lat="49.2623" lon="0.20122">
        <ele>57.82</ele>
        <time>2021-03-23T16:40:27Z</time>
      </trkpt>
      <trkpt lat="49.2626" lon="0.2012">
        <ele>57.82</ele>
        <time>2021-03-23T16:40:53Z</time>
      </trkpt>
      <trkpt lat="49.26291" lon="0.20113">
        <ele>57.82</ele>
        <time>2021-03-23T16:41:19Z</time>
      </trkpt>
      <trkpt lat="49.26326" lon="0.20108">
        <ele>57.34</ele>
        <time>2021-03-23T16:41:44Z</time>
      </trkpt>
      <trkpt lat="49.2634" lon="0.20135">
        <ele>56.37</ele>
        <time>2021-03-23T16:42:00Z</time>
      </trkpt>
      <trkpt lat="49.26353" lon="0.20179">
        <ele>54.45</ele>
        <time>2021-03-23T16:42:27Z</time>
      </trkpt>
      <trkpt lat="49.26361" lon="0.20206">
        <ele>51.57</ele>
        <time>2021-03-23T16:42:45Z</time>
      </trkpt>
      <trkpt lat="49.26366" lon="0.20241">
        <ele>48.68</ele>
        <time>2021-03-23T16:43:05Z</time>
      </trkpt>
      <trkpt lat="49.2636" lon="0.20288">
        <ele>45.8</ele>
        <time>2021-03-23T16:43:27Z</time>
      </trkpt>
      <trkpt lat="49.26357" lon="0.20325">
        <ele>43.88</ele>
        <time>2021-03-23T16:43:50Z</time>
      </trkpt>
      <trkpt lat="49.26357" lon="0.20372">
        <ele>42.44</ele>
        <time>2021-03-23T16:44:14Z</time>
      </trkpt>
      <trkpt lat="49.26376" lon="0.20383">
        <ele>42.44</ele>
        <time>2021-03-23T16:44:33Z</time>
      </trkpt>
      <trkpt lat="49.26405" lon="0.20375">
        <ele>43.88</ele>
        <time>2021-03-23T16:44:56Z</time>
      </trkpt>
      <trkpt lat="49.26435" lon="0.20362">
        <ele>44.36</ele>
        <time>2021-03-23T16:45:19Z</time>
      </trkpt>
      <trkpt lat="49.26453" lon="0.20355">
        <ele>44.84</ele>
        <time>2021-03-23T16:45:38Z</time>
      </trkpt>
      <trkpt lat="49.26485" lon="0.20343">
        <ele>44.84</ele>
        <time>2021-03-23T16:46:04Z</time>
      </trkpt>
      <trkpt lat="49.26512" lon="0.20326">
        <ele>44.84</ele>
        <time>2021-03-23T16:46:28Z</time>
      </trkpt>
      <trkpt lat="49.26522" lon="0.2032">
        <ele>43.4</ele>
        <time>2021-03-23T16:46:35Z</time>
      </trkpt>
      <trkpt lat="49.26545" lon="0.20304">
        <ele>42.44</ele>
        <time>2021-03-23T16:47:00Z</time>
      </trkpt>
      <trkpt lat="49.26572" lon="0.20283">
        <ele>41.47</ele>
        <time>2021-03-23T16:47:22Z</time>
      </trkpt>
      <trkpt lat="49.26594" lon="0.20264">
        <ele>40.51</ele>
        <time>2021-03-23T16:47:43Z</time>
      </trkpt>
      <trkpt lat="49.26622" lon="0.20261">
        <ele>39.55</ele>
        <time>2021-03-23T16:48:04Z</time>
      </trkpt>
      <trkpt lat="49.26632" lon="0.20276">
        <ele>37.15</ele>
        <time>2021-03-23T16:48:23Z</time>
      </trkpt>
      <trkpt lat="49.26657" lon="0.20294">
        <ele>35.23</ele>
        <time>2021-03-23T16:48:47Z</time>
      </trkpt>
      <trkpt lat="49.26674" lon="0.20299">
        <ele>32.82</ele>
        <time>2021-03-23T16:49:06Z</time>
      </trkpt>
      <trkpt lat="49.26683" lon="0.20311">
        <ele>30.9</ele>
        <time>2021-03-23T16:49:19Z</time>
      </trkpt>
      <trkpt lat="49.26705" lon="0.2031">
        <ele>27.53</ele>
        <time>2021-03-23T16:49:34Z</time>
      </trkpt>
      <trkpt lat="49.26715" lon="0.20299">
        <ele>24.17</ele>
        <time>2021-03-23T16:49:56Z</time>
      </trkpt>
      <trkpt lat="49.26729" lon="0.20276">
        <ele>20.81</ele>
        <time>2021-03-23T16:50:18Z</time>
      </trkpt>
      <trkpt lat="49.26733" lon="0.20257">
        <ele>17.44</ele>
        <time>2021-03-23T16:50:34Z</time>
      </trkpt>
      <trkpt lat="49.2674" lon="0.20227">
        <ele>14.08</ele>
        <time>2021-03-23T16:50:55Z</time>
      </trkpt>
      <trkpt lat="49.26741" lon="0.20209">
        <ele>12.15</ele>
        <time>2021-03-23T16:51:06Z</time>
      </trkpt>
      <trkpt lat="49.26746" lon="0.2017">
        <ele>11.19</ele>
        <time>2021-03-23T16:51:28Z</time>
      </trkpt>
      <trkpt lat="49.26769" lon="0.20163">
        <ele>9.27</ele>
        <time>2021-03-23T16:51:43Z</time>
      </trkpt>
      <trkpt lat="49.26797" lon="0.20132">
        <ele>7.83</ele>
        <time>2021-03-23T16:52:02Z</time>
      </trkpt>
      <trkpt lat="49.2682" lon="0.20093">
        <ele>6.87</ele>
        <time>2021-03-23T16:52:26Z</time>
      </trkpt>
      <trkpt lat="49.26851" lon="0.20056">
        <ele>5.42</ele>
        <time>2021-03-23T16:52:51Z</time>
      </trkpt>
      <trkpt lat="49.269" lon="0.20018">
        <ele>3.98</ele>
        <time>2021-03-23T16:53:18Z</time>
      </trkpt>
      <trkpt lat="49.26917" lon="0.19999">
        <ele>3.5</ele>
        <time>2021-03-23T16:53:40Z</time>
      </trkpt>
      <trkpt lat="49.2693" lon="0.19982">
        <ele>3.02</ele>
        <time>2021-03-23T16:54:00Z</time>
      </trkpt>
      <trkpt lat="49.26948" lon="0.19952">
        <ele>2.54</ele>
        <time>2021-03-23T16:54:23Z</time>
      </trkpt>
      <trkpt lat="49.26968" lon="0.19929">
        <ele>2.06</ele>
        <time>2021-03-23T16:54:44Z</time>
      </trkpt>
      <trkpt lat="49.26981" lon="0.19909">
        <ele>3.5</ele>
        <time>2021-03-23T16:54:57Z</time>
      </trkpt>
      <trkpt lat="49.26992" lon="0.19897">
        <ele>2.54</ele>
        <time>2021-03-23T16:55:10Z</time>
      </trkpt>
      <trkpt lat="49.27014" lon="0.19877">
        <ele>1.58</ele>
        <time>2021-03-23T16:55:28Z</time>
      </trkpt>
      <trkpt lat="49.27035" lon="0.19854">
        <ele>1.58</ele>
        <time>2021-03-23T16:55:48Z</time>
      </trkpt>
      <trkpt lat="49.27062" lon="0.19832">
        <ele>1.1</ele>
        <time>2021-03-23T16:56:12Z</time>
      </trkpt>
      <trkpt lat="49.27088" lon="0.19822">
        <ele>1.1</ele>
        <time>2021-03-23T16:56:33Z</time>
      </trkpt>
      <trkpt lat="49.27096" lon="0.19788">
        <ele>1.1</ele>
        <time>2021-03-23T16:56:52Z</time>
      </trkpt>
      <trkpt lat="49.27098" lon="0.19781">
        <ele>1.1</ele>
        <time>2021-03-23T16:57:12Z</time>
      </trkpt>
      <trkpt lat="49.27096" lon="0.19763">
        <ele>0.62</ele>
        <time>2021-03-23T16:57:28Z</time>
      </trkpt>
      <trkpt lat="49.27108" lon="0.19724">
        <ele>0.62</ele>
        <time>2021-03-23T16:57:52Z</time>
      </trkpt>
      <trkpt lat="49.2712" lon="0.19692">
        <ele>0.62</ele>
        <time>2021-03-23T16:58:11Z</time>
      </trkpt>
      <trkpt lat="49.2714" lon="0.1966">
        <ele>0.62</ele>
        <time>2021-03-23T16:58:30Z</time>
      </trkpt>
      <trkpt lat="49.27154" lon="0.19631">
        <ele>0.62</ele>
        <time>2021-03-23T16:58:49Z</time>
      </trkpt>
      <trkpt lat="49.27173" lon="0.19599">
        <ele>0.62</ele>
        <time>2021-03-23T16:59:12Z</time>
      </trkpt>
      <trkpt lat="49.27192" lon="0.19571">
        <ele>0.62</ele>
        <time>2021-03-23T16:59:32Z</time>
      </trkpt>
      <trkpt lat="49.27206" lon="0.19543">
        <ele>0.14</ele>
        <time>2021-03-23T16:59:53Z</time>
      </trkpt>
      <trkpt lat="49.27226" lon="0.19507">
        <ele>-0.34</ele>
        <time>2021-03-23T17:00:13Z</time>
      </trkpt>
      <trkpt lat="49.27247" lon="0.1947">
        <ele>-0.34</ele>
        <time>2021-03-23T17:00:40Z</time>
      </trkpt>
      <trkpt lat="49.27271" lon="0.19433">
        <ele>-0.34</ele>
        <time>2021-03-23T17:01:03Z</time>
      </trkpt>
      <trkpt lat="49.2729" lon="0.19405">
        <ele>-0.34</ele>
        <time>2021-03-23T17:01:23Z</time>
      </trkpt>
      <trkpt lat="49.27315" lon="0.19369">
        <ele>-0.34</ele>
        <time>2021-03-23T17:01:48Z</time>
      </trkpt>
      <trkpt lat="49.27336" lon="0.19336">
        <ele>0.14</ele>
        <time>2021-03-23T17:02:12Z</time>
      </trkpt>
      <trkpt lat="49.27341" lon="0.1933">
        <ele>0.14</ele>
        <time>2021-03-23T17:02:17Z</time>
      </trkpt>
      <trkpt lat="49.27362" lon="0.19303">
        <ele>0.14</ele>
        <time>2021-03-23T17:02:38Z</time>
      </trkpt>
      <trkpt lat="49.27381" lon="0.19279">
        <ele>0.14</ele>
        <time>2021-03-23T17:02:59Z</time>
      </trkpt>
      <trkpt lat="49.27397" lon="0.19256">
        <ele>0.14</ele>
        <time>2021-03-23T17:03:19Z</time>
      </trkpt>
      <trkpt lat="49.27412" lon="0.1923">
        <ele>0.14</ele>
        <time>2021-03-23T17:03:38Z</time>
      </trkpt>
      <trkpt lat="49.27416" lon="0.1921">
        <ele>2.06</ele>
        <time>2021-03-23T17:03:54Z</time>
      </trkpt>
      <trkpt lat="49.2744" lon="0.1918">
        <ele>2.54</ele>
        <time>2021-03-23T17:04:19Z</time>
      </trkpt>
      <trkpt lat="49.27462" lon="0.19154">
        <ele>2.54</ele>
        <time>2021-03-23T17:04:41Z</time>
      </trkpt>
      <trkpt lat="49.27484" lon="0.19123">
        <ele>3.02</ele>
        <time>2021-03-23T17:05:04Z</time>
      </trkpt>
      <trkpt lat="49.2749" lon="0.19114">
        <ele>3.02</ele>
        <time>2021-03-23T17:05:16Z</time>
      </trkpt>
      <trkpt lat="49.27508" lon="0.19111">
        <ele>3.5</ele>
        <time>2021-03-23T17:05:33Z</time>
      </trkpt>
      <trkpt lat="49.27537" lon="0.1906">
        <ele>3.98</ele>
        <time>2021-03-23T17:05:56Z</time>
      </trkpt>
      <trkpt lat="49.27561" lon="0.19026">
        <ele>5.42</ele>
        <time>2021-03-23T17:06:22Z</time>
      </trkpt>
      <trkpt lat="49.27581" lon="0.18999">
        <ele>6.39</ele>
        <time>2021-03-23T17:06:44Z</time>
      </trkpt>
      <trkpt lat="49.27609" lon="0.18968">
        <ele>7.35</ele>
        <time>2021-03-23T17:07:09Z</time>
      </trkpt>
      <trkpt lat="49.27618" lon="0.18947">
        <ele>7.83</ele>
        <time>2021-03-23T17:07:29Z</time>
      </trkpt>
      <trkpt lat="49.27637" lon="0.18919">
        <ele>8.31</ele>
        <time>2021-03-23T17:07:50Z</time>
      </trkpt>
      <trkpt lat="49.27649" lon="0.18911">
        <ele>8.31</ele>
        <time>2021-03-23T17:07:59Z</time>
      </trkpt>
      <trkpt lat="49.27663" lon="0.1888">
        <ele>6.87</ele>
        <time>2021-03-23T17:08:19Z</time>
      </trkpt>
      <trkpt lat="49.2767" lon="0.18863">
        <ele>6.87</ele>
        <time>2021-03-23T17:08:29Z</time>
      </trkpt>
      <trkpt lat="49.27687" lon="0.18818">
        <ele>6.39</ele>
        <time>2021-03-23T17:08:54Z</time>
      </trkpt>
      <trkpt lat="49.27695" lon="0.18782">
        <ele>5.42</ele>
        <time>2021-03-23T17:09:13Z</time>
      </trkpt>
      <trkpt lat="49.27705" lon="0.18742">
        <ele>4.46</ele>
        <time>2021-03-23T17:09:34Z</time>
      </trkpt>
      <trkpt lat="49.2772" lon="0.18705">
        <ele>3.98</ele>
        <time>2021-03-23T17:09:56Z</time>
      </trkpt>
      <trkpt lat="49.27737" lon="0.18686">
        <ele>3.5</ele>
        <time>2021-03-23T17:10:14Z</time>
      </trkpt>
      <trkpt lat="49.27765" lon="0.18663">
        <ele>3.5</ele>
        <time>2021-03-23T17:10:38Z</time>
      </trkpt>
      <trkpt lat="49.27787" lon="0.18634">
        <ele>3.5</ele>
        <time>2021-03-23T17:11:01Z</time>
      </trkpt>
      <trkpt lat="49.27807" lon="0.18603">
        <ele>3.02</ele>
        <time>2021-03-23T17:11:24Z</time>
      </trkpt>
      <trkpt lat="49.27817" lon="0.18578">
        <ele>3.02</ele>
        <time>2021-03-23T17:11:41Z</time>
      </trkpt>
      <trkpt lat="49.27832" lon="0.18547">
        <ele>3.02</ele>
        <time>2021-03-23T17:12:02Z</time>
      </trkpt>
      <trkpt lat="49.27833" lon="0.18545">
        <ele>4.46</ele>
        <time>2021-03-23T17:12:04Z</time>
      </trkpt>
      <trkpt lat="49.27841" lon="0.18525">
        <ele>4.46</ele>
        <time>2021-03-23T17:12:19Z</time>
      </trkpt>
      <trkpt lat="49.27841" lon="0.1849">
        <ele>4.46</ele>
        <time>2021-03-23T17:12:41Z</time>
      </trkpt>
      <trkpt lat="49.27844" lon="0.18446">
        <ele>3.02</ele>
        <time>2021-03-23T17:13:02Z</time>
      </trkpt>
      <trkpt lat="49.27851" lon="0.18411">
        <ele>3.02</ele>
        <time>2021-03-23T17:13:21Z</time>
      </trkpt>
      <trkpt lat="49.27864" lon="0.18386">
        <ele>4.46</ele>
        <time>2021-03-23T17:13:41Z</time>
      </trkpt>
      <trkpt lat="49.27884" lon="0.18361">
        <ele>5.42</ele>
        <time>2021-03-23T17:14:01Z</time>
      </trkpt>
      <trkpt lat="49.27888" lon="0.18339">
        <ele>7.83</ele>
        <time>2021-03-23T17:14:17Z</time>
      </trkpt>
      <trkpt lat="49.27877" lon="0.18336">
        <ele>7.83</ele>
        <time>2021-03-23T17:14:26Z</time>
      </trkpt>
      <trkpt lat="49.27851" lon="0.18317">
        <ele>8.79</ele>
        <time>2021-03-23T17:14:51Z</time>
      </trkpt>
      <trkpt lat="49.27836" lon="0.1829">
        <ele>10.71</ele>
        <time>2021-03-23T17:15:12Z</time>
      </trkpt>
      <trkpt lat="49.27825" lon="0.18248">
        <ele>13.12</ele>
        <time>2021-03-23T17:15:35Z</time>
      </trkpt>
      <trkpt lat="49.27816" lon="0.18205">
        <ele>14.56</ele>
        <time>2021-03-23T17:16:01Z</time>
      </trkpt>
      <trkpt lat="49.27816" lon="0.18203">
        <ele>14.56</ele>
        <time>2021-03-23T17:16:02Z</time>
      </trkpt>
      <trkpt lat="49.27811" lon="0.1816">
        <ele>16.48</ele>
        <time>2021-03-23T17:16:25Z</time>
      </trkpt>
      <trkpt lat="49.27811" lon="0.18119">
        <ele>17.44</ele>
        <time>2021-03-23T17:16:46Z</time>
      </trkpt>
      <trkpt lat="49.27814" lon="0.18078">
        <ele>18.4</ele>
        <time>2021-03-23T17:17:07Z</time>
      </trkpt>
      <trkpt lat="49.27816" lon="0.18043">
        <ele>18.88</ele>
        <time>2021-03-23T17:17:23Z</time>
      </trkpt>
      <trkpt lat="49.27817" lon="0.18039">
        <ele>18.88</ele>
        <time>2021-03-23T17:17:25Z</time>
      </trkpt>
      <trkpt lat="49.27823" lon="0.17998">
        <ele>20.32</ele>
        <time>2021-03-23T17:17:47Z</time>
      </trkpt>
      <trkpt lat="49.27828" lon="0.17957">
        <ele>21.77</ele>
        <time>2021-03-23T17:18:09Z</time>
      </trkpt>
      <trkpt lat="49.27826" lon="0.17939">
        <ele>22.25</ele>
        <time>2021-03-23T17:18:19Z</time>
      </trkpt>
      <trkpt lat="49.27837" lon="0.17924">
        <ele>24.17</ele>
        <time>2021-03-23T17:18:31Z</time>
      </trkpt>
      <trkpt lat="49.27839" lon="0.17924">
        <ele>22.73</ele>
        <time>2021-03-23T17:18:33Z</time>
      </trkpt>
      <trkpt lat="49.27854" lon="0.17923">
        <ele>22.25</ele>
        <time>2021-03-23T17:18:46Z</time>
      </trkpt>
      <trkpt lat="49.27876" lon="0.17925">
        <ele>22.25</ele>
        <time>2021-03-23T17:19:02Z</time>
      </trkpt>
      <trkpt lat="49.27882" lon="0.17925">
        <ele>22.25</ele>
        <time>2021-03-23T17:19:06Z</time>
      </trkpt>
      <trkpt lat="49.2791" lon="0.17932">
        <ele>22.73</ele>
        <time>2021-03-23T17:19:27Z</time>
      </trkpt>
      <trkpt lat="49.27934" lon="0.17939">
        <ele>22.73</ele>
        <time>2021-03-23T17:19:49Z</time>
      </trkpt>
      <trkpt lat="49.27961" lon="0.17943">
        <ele>22.73</ele>
        <time>2021-03-23T17:20:10Z</time>
      </trkpt>
      <trkpt lat="49.27987" lon="0.17948">
        <ele>22.73</ele>
        <time>2021-03-23T17:20:30Z</time>
      </trkpt>
      <trkpt lat="49.28014" lon="0.17952">
        <ele>23.21</ele>
        <time>2021-03-23T17:20:50Z</time>
      </trkpt>
      <trkpt lat="49.28022" lon="0.17929">
        <ele>24.65</ele>
        <time>2021-03-23T17:21:05Z</time>
      </trkpt>
      <trkpt lat="49.28022" lon="0.17889">
        <ele>26.09</ele>
        <time>2021-03-23T17:21:24Z</time>
      </trkpt>
      <trkpt lat="49.28022" lon="0.17861">
        <ele>27.05</ele>
        <time>2021-03-23T17:21:38Z</time>
      </trkpt>
      <trkpt lat="49.28031" lon="0.17847">
        <ele>27.53</ele>
        <time>2021-03-23T17:21:49Z</time>
      </trkpt>
      <trkpt lat="49.28034" lon="0.17846">
        <ele>27.53</ele>
        <time>2021-03-23T17:21:52Z</time>
      </trkpt>
    </trkseg>
  </trk>
</gpx>